<?xml version="1.0" encoding="UTF-8" standalone="no" ?>
<gpx xmlns="http://www.topografix.com/GPX/1/1" xmlns:xsi="http://www.w3.org/2001/XMLSchema-instance" xsi:schemaLocation="http://www.topografix.com/GPX/1/1 http://www.topografix.com/GPX/1/1/gpx.xsd" version="1.1" creator="VisuGPX - https://www.visugpx.com">
  <metadata>
    <name>Balade autour de Marly le Roi</name>
    <desc><![CDATA[Entre Marly le Roi et Port Marly]]></desc>
  </metadata>
  <trk>
    <name><![CDATA[20181117092145-aGgpG]]></name>
    <trkseg>
      <trkpt lat="48.87176" lon="2.0934">
        <ele>153</ele>
        <time>2018-11-08T09:25:56 01:00</time>
      </trkpt>
      <trkpt lat="48.87178" lon="2.09326">
        <ele>152</ele>
        <time>2018-11-08T09:26:05 01:00</time>
      </trkpt>
      <trkpt lat="48.87181" lon="2.09312">
        <ele>151</ele>
        <time>2018-11-08T09:26:12 01:00</time>
      </trkpt>
      <trkpt lat="48.87183" lon="2.09298">
        <ele>151</ele>
        <time>2018-11-08T09:26:19 01:00</time>
      </trkpt>
      <trkpt lat="48.87184" lon="2.09283">
        <ele>152</ele>
        <time>2018-11-08T09:26:28 01:00</time>
      </trkpt>
      <trkpt lat="48.87186" lon="2.09268">
        <ele>149</ele>
        <time>2018-11-08T09:26:41 01:00</time>
      </trkpt>
      <trkpt lat="48.87189" lon="2.09253">
        <ele>147</ele>
        <time>2018-11-08T09:26:50 01:00</time>
      </trkpt>
      <trkpt lat="48.8719" lon="2.09239">
        <ele>147</ele>
        <time>2018-11-08T09:26:57 01:00</time>
      </trkpt>
      <trkpt lat="48.87193" lon="2.09227">
        <ele>146</ele>
        <time>2018-11-08T09:27:05 01:00</time>
      </trkpt>
      <trkpt lat="48.87196" lon="2.09212">
        <ele>145</ele>
        <time>2018-11-08T09:27:14 01:00</time>
      </trkpt>
      <trkpt lat="48.87196" lon="2.09198">
        <ele>144</ele>
        <time>2018-11-08T09:27:26 01:00</time>
      </trkpt>
      <trkpt lat="48.8719" lon="2.09188">
        <ele>146</ele>
        <time>2018-11-08T09:27:38 01:00</time>
      </trkpt>
      <trkpt lat="48.87182" lon="2.09181">
        <ele>145</ele>
        <time>2018-11-08T09:27:48 01:00</time>
      </trkpt>
      <trkpt lat="48.87174" lon="2.09173">
        <ele>147</ele>
        <time>2018-11-08T09:27:56 01:00</time>
      </trkpt>
      <trkpt lat="48.87166" lon="2.09165">
        <ele>148</ele>
        <time>2018-11-08T09:28:06 01:00</time>
      </trkpt>
      <trkpt lat="48.87157" lon="2.09158">
        <ele>148</ele>
        <time>2018-11-08T09:28:22 01:00</time>
      </trkpt>
      <trkpt lat="48.8715" lon="2.0915">
        <ele>149</ele>
        <time>2018-11-08T09:28:31 01:00</time>
      </trkpt>
      <trkpt lat="48.87142" lon="2.0914">
        <ele>148</ele>
        <time>2018-11-08T09:28:41 01:00</time>
      </trkpt>
      <trkpt lat="48.87134" lon="2.09131">
        <ele>152</ele>
        <time>2018-11-08T09:28:48 01:00</time>
      </trkpt>
      <trkpt lat="48.87126" lon="2.09121">
        <ele>154</ele>
        <time>2018-11-08T09:28:54 01:00</time>
      </trkpt>
      <trkpt lat="48.87118" lon="2.09112">
        <ele>155</ele>
        <time>2018-11-08T09:29:04 01:00</time>
      </trkpt>
      <trkpt lat="48.87109" lon="2.09115">
        <ele>157</ele>
        <time>2018-11-08T09:30:22 01:00</time>
      </trkpt>
      <trkpt lat="48.87101" lon="2.0911">
        <ele>156</ele>
        <time>2018-11-08T09:30:36 01:00</time>
      </trkpt>
      <trkpt lat="48.87091" lon="2.09107">
        <ele>155</ele>
        <time>2018-11-08T09:30:45 01:00</time>
      </trkpt>
      <trkpt lat="48.87082" lon="2.09105">
        <ele>155</ele>
        <time>2018-11-08T09:30:52 01:00</time>
      </trkpt>
      <trkpt lat="48.87074" lon="2.09101">
        <ele>153</ele>
        <time>2018-11-08T09:31:02 01:00</time>
      </trkpt>
      <trkpt lat="48.87065" lon="2.09095">
        <ele>155</ele>
        <time>2018-11-08T09:31:11 01:00</time>
      </trkpt>
      <trkpt lat="48.87056" lon="2.09087">
        <ele>156</ele>
        <time>2018-11-08T09:31:20 01:00</time>
      </trkpt>
      <trkpt lat="48.87047" lon="2.09081">
        <ele>158</ele>
        <time>2018-11-08T09:31:26 01:00</time>
      </trkpt>
      <trkpt lat="48.87038" lon="2.09075">
        <ele>158</ele>
        <time>2018-11-08T09:31:33 01:00</time>
      </trkpt>
      <trkpt lat="48.8703" lon="2.09071">
        <ele>160</ele>
        <time>2018-11-08T09:31:41 01:00</time>
      </trkpt>
      <trkpt lat="48.8702" lon="2.09074">
        <ele>160</ele>
        <time>2018-11-08T09:31:51 01:00</time>
      </trkpt>
      <trkpt lat="48.87012" lon="2.09082">
        <ele>161</ele>
        <time>2018-11-08T09:32:01 01:00</time>
      </trkpt>
      <trkpt lat="48.87004" lon="2.09088">
        <ele>157</ele>
        <time>2018-11-08T09:32:29 01:00</time>
      </trkpt>
      <trkpt lat="48.86994" lon="2.09083">
        <ele>157</ele>
        <time>2018-11-08T09:32:38 01:00</time>
      </trkpt>
      <trkpt lat="48.86986" lon="2.09076">
        <ele>157</ele>
        <time>2018-11-08T09:32:44 01:00</time>
      </trkpt>
      <trkpt lat="48.86977" lon="2.09072">
        <ele>157</ele>
        <time>2018-11-08T09:32:52 01:00</time>
      </trkpt>
      <trkpt lat="48.8697" lon="2.09063">
        <ele>159</ele>
        <time>2018-11-08T09:33:00 01:00</time>
      </trkpt>
      <trkpt lat="48.86963" lon="2.09054">
        <ele>160</ele>
        <time>2018-11-08T09:33:08 01:00</time>
      </trkpt>
      <trkpt lat="48.86956" lon="2.09046">
        <ele>158</ele>
        <time>2018-11-08T09:33:18 01:00</time>
      </trkpt>
      <trkpt lat="48.86948" lon="2.09037">
        <ele>163</ele>
        <time>2018-11-08T09:33:25 01:00</time>
      </trkpt>
      <trkpt lat="48.86942" lon="2.09027">
        <ele>162</ele>
        <time>2018-11-08T09:33:31 01:00</time>
      </trkpt>
      <trkpt lat="48.86935" lon="2.09018">
        <ele>161</ele>
        <time>2018-11-08T09:33:38 01:00</time>
      </trkpt>
      <trkpt lat="48.86927" lon="2.0901">
        <ele>156</ele>
        <time>2018-11-08T09:33:47 01:00</time>
      </trkpt>
      <trkpt lat="48.86919" lon="2.09005">
        <ele>154</ele>
        <time>2018-11-08T09:33:58 01:00</time>
      </trkpt>
      <trkpt lat="48.86909" lon="2.09005">
        <ele>154</ele>
        <time>2018-11-08T09:34:11 01:00</time>
      </trkpt>
      <trkpt lat="48.86901" lon="2.08998">
        <ele>156</ele>
        <time>2018-11-08T09:34:43 01:00</time>
      </trkpt>
      <trkpt lat="48.86897" lon="2.08986">
        <ele>162</ele>
        <time>2018-11-08T09:35:01 01:00</time>
      </trkpt>
      <trkpt lat="48.86889" lon="2.08994">
        <ele>163</ele>
        <time>2018-11-08T09:35:29 01:00</time>
      </trkpt>
      <trkpt lat="48.86882" lon="2.09002">
        <ele>163</ele>
        <time>2018-11-08T09:35:37 01:00</time>
      </trkpt>
      <trkpt lat="48.86875" lon="2.09012">
        <ele>165</ele>
        <time>2018-11-08T09:35:46 01:00</time>
      </trkpt>
      <trkpt lat="48.86869" lon="2.09025">
        <ele>167</ele>
        <time>2018-11-08T09:35:55 01:00</time>
      </trkpt>
      <trkpt lat="48.86863" lon="2.09037">
        <ele>170</ele>
        <time>2018-11-08T09:36:03 01:00</time>
      </trkpt>
      <trkpt lat="48.86857" lon="2.09048">
        <ele>174</ele>
        <time>2018-11-08T09:36:10 01:00</time>
      </trkpt>
      <trkpt lat="48.86851" lon="2.09061">
        <ele>174</ele>
        <time>2018-11-08T09:36:18 01:00</time>
      </trkpt>
      <trkpt lat="48.86845" lon="2.09072">
        <ele>177</ele>
        <time>2018-11-08T09:36:25 01:00</time>
      </trkpt>
      <trkpt lat="48.86842" lon="2.09085">
        <ele>176</ele>
        <time>2018-11-08T09:36:37 01:00</time>
      </trkpt>
      <trkpt lat="48.86836" lon="2.09096">
        <ele>176</ele>
        <time>2018-11-08T09:36:49 01:00</time>
      </trkpt>
      <trkpt lat="48.86828" lon="2.09106">
        <ele>176</ele>
        <time>2018-11-08T09:36:59 01:00</time>
      </trkpt>
      <trkpt lat="48.86821" lon="2.09116">
        <ele>178</ele>
        <time>2018-11-08T09:37:07 01:00</time>
      </trkpt>
      <trkpt lat="48.86815" lon="2.09128">
        <ele>179</ele>
        <time>2018-11-08T09:37:18 01:00</time>
      </trkpt>
      <trkpt lat="48.86807" lon="2.09135">
        <ele>178</ele>
        <time>2018-11-08T09:37:32 01:00</time>
      </trkpt>
      <trkpt lat="48.868" lon="2.09144">
        <ele>183</ele>
        <time>2018-11-08T09:37:43 01:00</time>
      </trkpt>
      <trkpt lat="48.86796" lon="2.09158">
        <ele>181</ele>
        <time>2018-11-08T09:38:08 01:00</time>
      </trkpt>
      <trkpt lat="48.86792" lon="2.0917">
        <ele>183</ele>
        <time>2018-11-08T09:38:19 01:00</time>
      </trkpt>
      <trkpt lat="48.86787" lon="2.09182">
        <ele>177</ele>
        <time>2018-11-08T09:38:30 01:00</time>
      </trkpt>
      <trkpt lat="48.86782" lon="2.09194">
        <ele>177</ele>
        <time>2018-11-08T09:38:39 01:00</time>
      </trkpt>
      <trkpt lat="48.8678" lon="2.09208">
        <ele>176</ele>
        <time>2018-11-08T09:38:48 01:00</time>
      </trkpt>
      <trkpt lat="48.86779" lon="2.09222">
        <ele>179</ele>
        <time>2018-11-08T09:38:58 01:00</time>
      </trkpt>
      <trkpt lat="48.86777" lon="2.09237">
        <ele>185</ele>
        <time>2018-11-08T09:39:06 01:00</time>
      </trkpt>
      <trkpt lat="48.86786" lon="2.09236">
        <ele>183</ele>
        <time>2018-11-08T09:39:31 01:00</time>
      </trkpt>
      <trkpt lat="48.86793" lon="2.09245">
        <ele>182</ele>
        <time>2018-11-08T09:39:37 01:00</time>
      </trkpt>
      <trkpt lat="48.86796" lon="2.09259">
        <ele>183</ele>
        <time>2018-11-08T09:39:45 01:00</time>
      </trkpt>
      <trkpt lat="48.86793" lon="2.09272">
        <ele>186</ele>
        <time>2018-11-08T09:39:53 01:00</time>
      </trkpt>
      <trkpt lat="48.86793" lon="2.09287">
        <ele>187</ele>
        <time>2018-11-08T09:40:05 01:00</time>
      </trkpt>
      <trkpt lat="48.86791" lon="2.09302">
        <ele>186</ele>
        <time>2018-11-08T09:40:17 01:00</time>
      </trkpt>
      <trkpt lat="48.86789" lon="2.09316">
        <ele>186</ele>
        <time>2018-11-08T09:40:27 01:00</time>
      </trkpt>
      <trkpt lat="48.86783" lon="2.09327">
        <ele>186</ele>
        <time>2018-11-08T09:40:38 01:00</time>
      </trkpt>
      <trkpt lat="48.86779" lon="2.09339">
        <ele>187</ele>
        <time>2018-11-08T09:40:49 01:00</time>
      </trkpt>
      <trkpt lat="48.86772" lon="2.0935">
        <ele>186</ele>
        <time>2018-11-08T09:41:02 01:00</time>
      </trkpt>
      <trkpt lat="48.86764" lon="2.09358">
        <ele>187</ele>
        <time>2018-11-08T09:41:16 01:00</time>
      </trkpt>
      <trkpt lat="48.86758" lon="2.09368">
        <ele>188</ele>
        <time>2018-11-08T09:41:26 01:00</time>
      </trkpt>
      <trkpt lat="48.86754" lon="2.09381">
        <ele>189</ele>
        <time>2018-11-08T09:41:35 01:00</time>
      </trkpt>
      <trkpt lat="48.8675" lon="2.09395">
        <ele>191</ele>
        <time>2018-11-08T09:41:43 01:00</time>
      </trkpt>
      <trkpt lat="48.86752" lon="2.09409">
        <ele>190</ele>
        <time>2018-11-08T09:41:57 01:00</time>
      </trkpt>
      <trkpt lat="48.86761" lon="2.09409">
        <ele>188</ele>
        <time>2018-11-08T09:42:24 01:00</time>
      </trkpt>
      <trkpt lat="48.86769" lon="2.09401">
        <ele>188</ele>
        <time>2018-11-08T09:42:38 01:00</time>
      </trkpt>
      <trkpt lat="48.86776" lon="2.0941">
        <ele>183</ele>
        <time>2018-11-08T09:42:51 01:00</time>
      </trkpt>
      <trkpt lat="48.86777" lon="2.09425">
        <ele>180</ele>
        <time>2018-11-08T09:42:58 01:00</time>
      </trkpt>
      <trkpt lat="48.86776" lon="2.0944">
        <ele>182</ele>
        <time>2018-11-08T09:43:06 01:00</time>
      </trkpt>
      <trkpt lat="48.86774" lon="2.09454">
        <ele>182</ele>
        <time>2018-11-08T09:43:18 01:00</time>
      </trkpt>
      <trkpt lat="48.8677" lon="2.09467">
        <ele>179</ele>
        <time>2018-11-08T09:43:28 01:00</time>
      </trkpt>
      <trkpt lat="48.86767" lon="2.0948">
        <ele>181</ele>
        <time>2018-11-08T09:43:37 01:00</time>
      </trkpt>
      <trkpt lat="48.86763" lon="2.09493">
        <ele>180</ele>
        <time>2018-11-08T09:43:50 01:00</time>
      </trkpt>
      <trkpt lat="48.8676" lon="2.09508">
        <ele>181</ele>
        <time>2018-11-08T09:44:00 01:00</time>
      </trkpt>
      <trkpt lat="48.8676" lon="2.09522">
        <ele>180</ele>
        <time>2018-11-08T09:44:10 01:00</time>
      </trkpt>
      <trkpt lat="48.86759" lon="2.09536">
        <ele>179</ele>
        <time>2018-11-08T09:44:21 01:00</time>
      </trkpt>
      <trkpt lat="48.86759" lon="2.09551">
        <ele>178</ele>
        <time>2018-11-08T09:44:31 01:00</time>
      </trkpt>
      <trkpt lat="48.86757" lon="2.09565">
        <ele>180</ele>
        <time>2018-11-08T09:44:42 01:00</time>
      </trkpt>
      <trkpt lat="48.86753" lon="2.09578">
        <ele>177</ele>
        <time>2018-11-08T09:44:52 01:00</time>
      </trkpt>
      <trkpt lat="48.86749" lon="2.0959">
        <ele>177</ele>
        <time>2018-11-08T09:45:02 01:00</time>
      </trkpt>
      <trkpt lat="48.86746" lon="2.09604">
        <ele>176</ele>
        <time>2018-11-08T09:45:14 01:00</time>
      </trkpt>
      <trkpt lat="48.86746" lon="2.09619">
        <ele>176</ele>
        <time>2018-11-08T09:45:24 01:00</time>
      </trkpt>
      <trkpt lat="48.86747" lon="2.09633">
        <ele>175</ele>
        <time>2018-11-08T09:45:34 01:00</time>
      </trkpt>
      <trkpt lat="48.86749" lon="2.09648">
        <ele>174</ele>
        <time>2018-11-08T09:45:44 01:00</time>
      </trkpt>
      <trkpt lat="48.86751" lon="2.09661">
        <ele>170</ele>
        <time>2018-11-08T09:45:54 01:00</time>
      </trkpt>
      <trkpt lat="48.8675" lon="2.09675">
        <ele>172</ele>
        <time>2018-11-08T09:46:03 01:00</time>
      </trkpt>
      <trkpt lat="48.86745" lon="2.09687">
        <ele>171</ele>
        <time>2018-11-08T09:46:12 01:00</time>
      </trkpt>
      <trkpt lat="48.86742" lon="2.097">
        <ele>165</ele>
        <time>2018-11-08T09:46:44 01:00</time>
      </trkpt>
      <trkpt lat="48.86743" lon="2.09714">
        <ele>160</ele>
        <time>2018-11-08T09:47:00 01:00</time>
      </trkpt>
      <trkpt lat="48.86741" lon="2.09729">
        <ele>160</ele>
        <time>2018-11-08T09:47:08 01:00</time>
      </trkpt>
      <trkpt lat="48.86743" lon="2.09744">
        <ele>165</ele>
        <time>2018-11-08T09:47:55 01:00</time>
      </trkpt>
      <trkpt lat="48.86742" lon="2.09758">
        <ele>164</ele>
        <time>2018-11-08T09:48:07 01:00</time>
      </trkpt>
      <trkpt lat="48.86742" lon="2.09773">
        <ele>164</ele>
        <time>2018-11-08T09:48:26 01:00</time>
      </trkpt>
      <trkpt lat="48.86741" lon="2.09787">
        <ele>163</ele>
        <time>2018-11-08T09:48:34 01:00</time>
      </trkpt>
      <trkpt lat="48.86742" lon="2.09801">
        <ele>163</ele>
        <time>2018-11-08T09:48:43 01:00</time>
      </trkpt>
      <trkpt lat="48.86746" lon="2.09813">
        <ele>160</ele>
        <time>2018-11-08T09:48:58 01:00</time>
      </trkpt>
      <trkpt lat="48.86747" lon="2.09828">
        <ele>157</ele>
        <time>2018-11-08T09:49:08 01:00</time>
      </trkpt>
      <trkpt lat="48.86747" lon="2.09842">
        <ele>157</ele>
        <time>2018-11-08T09:49:16 01:00</time>
      </trkpt>
      <trkpt lat="48.86751" lon="2.09857">
        <ele>159</ele>
        <time>2018-11-08T09:49:24 01:00</time>
      </trkpt>
      <trkpt lat="48.86752" lon="2.09871">
        <ele>160</ele>
        <time>2018-11-08T09:49:32 01:00</time>
      </trkpt>
      <trkpt lat="48.86755" lon="2.09886">
        <ele>160</ele>
        <time>2018-11-08T09:49:40 01:00</time>
      </trkpt>
      <trkpt lat="48.86759" lon="2.09899">
        <ele>158</ele>
        <time>2018-11-08T09:49:48 01:00</time>
      </trkpt>
      <trkpt lat="48.86766" lon="2.09908">
        <ele>156</ele>
        <time>2018-11-08T09:49:57 01:00</time>
      </trkpt>
      <trkpt lat="48.86774" lon="2.09916">
        <ele>155</ele>
        <time>2018-11-08T09:50:09 01:00</time>
      </trkpt>
      <trkpt lat="48.86782" lon="2.09909">
        <ele>153</ele>
        <time>2018-11-08T09:50:22 01:00</time>
      </trkpt>
      <trkpt lat="48.86792" lon="2.09906">
        <ele>147</ele>
        <time>2018-11-08T09:50:35 01:00</time>
      </trkpt>
      <trkpt lat="48.86801" lon="2.09914">
        <ele>153</ele>
        <time>2018-11-08T09:51:04 01:00</time>
      </trkpt>
      <trkpt lat="48.8681" lon="2.09915">
        <ele>150</ele>
        <time>2018-11-08T09:51:13 01:00</time>
      </trkpt>
      <trkpt lat="48.86819" lon="2.09918">
        <ele>145</ele>
        <time>2018-11-08T09:51:25 01:00</time>
      </trkpt>
      <trkpt lat="48.86829" lon="2.09922">
        <ele>144</ele>
        <time>2018-11-08T09:51:33 01:00</time>
      </trkpt>
      <trkpt lat="48.86838" lon="2.09924">
        <ele>142</ele>
        <time>2018-11-08T09:51:41 01:00</time>
      </trkpt>
      <trkpt lat="48.86847" lon="2.09924">
        <ele>141</ele>
        <time>2018-11-08T09:51:51 01:00</time>
      </trkpt>
      <trkpt lat="48.86856" lon="2.09931">
        <ele>140</ele>
        <time>2018-11-08T09:51:59 01:00</time>
      </trkpt>
      <trkpt lat="48.86864" lon="2.09938">
        <ele>138</ele>
        <time>2018-11-08T09:52:10 01:00</time>
      </trkpt>
      <trkpt lat="48.86873" lon="2.09942">
        <ele>138</ele>
        <time>2018-11-08T09:52:20 01:00</time>
      </trkpt>
      <trkpt lat="48.86882" lon="2.09946">
        <ele>139</ele>
        <time>2018-11-08T09:52:28 01:00</time>
      </trkpt>
      <trkpt lat="48.86892" lon="2.09949">
        <ele>141</ele>
        <time>2018-11-08T09:52:36 01:00</time>
      </trkpt>
      <trkpt lat="48.86901" lon="2.09953">
        <ele>140</ele>
        <time>2018-11-08T09:52:44 01:00</time>
      </trkpt>
      <trkpt lat="48.8691" lon="2.09956">
        <ele>142</ele>
        <time>2018-11-08T09:52:51 01:00</time>
      </trkpt>
      <trkpt lat="48.8692" lon="2.09957">
        <ele>148</ele>
        <time>2018-11-08T09:53:00 01:00</time>
      </trkpt>
      <trkpt lat="48.86926" lon="2.09968">
        <ele>145</ele>
        <time>2018-11-08T09:53:14 01:00</time>
      </trkpt>
      <trkpt lat="48.86934" lon="2.09959">
        <ele>151</ele>
        <time>2018-11-08T09:54:02 01:00</time>
      </trkpt>
      <trkpt lat="48.86943" lon="2.09958">
        <ele>152</ele>
        <time>2018-11-08T09:54:14 01:00</time>
      </trkpt>
      <trkpt lat="48.86952" lon="2.0996">
        <ele>151</ele>
        <time>2018-11-08T09:54:24 01:00</time>
      </trkpt>
      <trkpt lat="48.86962" lon="2.09961">
        <ele>153</ele>
        <time>2018-11-08T09:54:33 01:00</time>
      </trkpt>
      <trkpt lat="48.86972" lon="2.0996">
        <ele>155</ele>
        <time>2018-11-08T09:54:40 01:00</time>
      </trkpt>
      <trkpt lat="48.86981" lon="2.0996">
        <ele>152</ele>
        <time>2018-11-08T09:54:48 01:00</time>
      </trkpt>
      <trkpt lat="48.86991" lon="2.09961">
        <ele>154</ele>
        <time>2018-11-08T09:54:56 01:00</time>
      </trkpt>
      <trkpt lat="48.87001" lon="2.09962">
        <ele>152</ele>
        <time>2018-11-08T09:55:03 01:00</time>
      </trkpt>
      <trkpt lat="48.8701" lon="2.0996">
        <ele>153</ele>
        <time>2018-11-08T09:55:10 01:00</time>
      </trkpt>
      <trkpt lat="48.87019" lon="2.09956">
        <ele>155</ele>
        <time>2018-11-08T09:55:18 01:00</time>
      </trkpt>
      <trkpt lat="48.87029" lon="2.09954">
        <ele>156</ele>
        <time>2018-11-08T09:55:27 01:00</time>
      </trkpt>
      <trkpt lat="48.87038" lon="2.0995">
        <ele>154</ele>
        <time>2018-11-08T09:55:35 01:00</time>
      </trkpt>
      <trkpt lat="48.87046" lon="2.09945">
        <ele>156</ele>
        <time>2018-11-08T09:55:43 01:00</time>
      </trkpt>
      <trkpt lat="48.87056" lon="2.09941">
        <ele>160</ele>
        <time>2018-11-08T09:55:52 01:00</time>
      </trkpt>
      <trkpt lat="48.87064" lon="2.09937">
        <ele>159</ele>
        <time>2018-11-08T09:56:02 01:00</time>
      </trkpt>
      <trkpt lat="48.87071" lon="2.09928">
        <ele>157</ele>
        <time>2018-11-08T09:56:15 01:00</time>
      </trkpt>
      <trkpt lat="48.87075" lon="2.09942">
        <ele>144</ele>
        <time>2018-11-08T09:56:49 01:00</time>
      </trkpt>
      <trkpt lat="48.87077" lon="2.09955">
        <ele>143</ele>
        <time>2018-11-08T09:56:55 01:00</time>
      </trkpt>
      <trkpt lat="48.87086" lon="2.09962">
        <ele>145</ele>
        <time>2018-11-08T09:57:03 01:00</time>
      </trkpt>
      <trkpt lat="48.87095" lon="2.09956">
        <ele>145</ele>
        <time>2018-11-08T09:57:12 01:00</time>
      </trkpt>
      <trkpt lat="48.87104" lon="2.09955">
        <ele>148</ele>
        <time>2018-11-08T09:57:23 01:00</time>
      </trkpt>
      <trkpt lat="48.87114" lon="2.09955">
        <ele>147</ele>
        <time>2018-11-08T09:57:32 01:00</time>
      </trkpt>
      <trkpt lat="48.87123" lon="2.09958">
        <ele>144</ele>
        <time>2018-11-08T09:57:40 01:00</time>
      </trkpt>
      <trkpt lat="48.8713" lon="2.09967">
        <ele>146</ele>
        <time>2018-11-08T09:57:50 01:00</time>
      </trkpt>
      <trkpt lat="48.87139" lon="2.09972">
        <ele>142</ele>
        <time>2018-11-08T09:58:02 01:00</time>
      </trkpt>
      <trkpt lat="48.87148" lon="2.09973">
        <ele>142</ele>
        <time>2018-11-08T09:58:13 01:00</time>
      </trkpt>
      <trkpt lat="48.87157" lon="2.09973">
        <ele>143</ele>
        <time>2018-11-08T09:58:22 01:00</time>
      </trkpt>
      <trkpt lat="48.87167" lon="2.09975">
        <ele>143</ele>
        <time>2018-11-08T09:58:34 01:00</time>
      </trkpt>
      <trkpt lat="48.87176" lon="2.09977">
        <ele>144</ele>
        <time>2018-11-08T09:58:47 01:00</time>
      </trkpt>
      <trkpt lat="48.87185" lon="2.09977">
        <ele>141</ele>
        <time>2018-11-08T09:58:58 01:00</time>
      </trkpt>
      <trkpt lat="48.87194" lon="2.0998">
        <ele>138</ele>
        <time>2018-11-08T09:59:07 01:00</time>
      </trkpt>
      <trkpt lat="48.87204" lon="2.09985">
        <ele>138</ele>
        <time>2018-11-08T09:59:16 01:00</time>
      </trkpt>
      <trkpt lat="48.87212" lon="2.09991">
        <ele>135</ele>
        <time>2018-11-08T09:59:27 01:00</time>
      </trkpt>
      <trkpt lat="48.87222" lon="2.09992">
        <ele>136</ele>
        <time>2018-11-08T09:59:40 01:00</time>
      </trkpt>
      <trkpt lat="48.87231" lon="2.09991">
        <ele>137</ele>
        <time>2018-11-08T09:59:55 01:00</time>
      </trkpt>
      <trkpt lat="48.87241" lon="2.09991">
        <ele>135</ele>
        <time>2018-11-08T10:00:06 01:00</time>
      </trkpt>
      <trkpt lat="48.87251" lon="2.09992">
        <ele>135</ele>
        <time>2018-11-08T10:00:15 01:00</time>
      </trkpt>
      <trkpt lat="48.87261" lon="2.09993">
        <ele>138</ele>
        <time>2018-11-08T10:00:23 01:00</time>
      </trkpt>
      <trkpt lat="48.8727" lon="2.09995">
        <ele>139</ele>
        <time>2018-11-08T10:00:31 01:00</time>
      </trkpt>
      <trkpt lat="48.87279" lon="2.09997">
        <ele>137</ele>
        <time>2018-11-08T10:00:42 01:00</time>
      </trkpt>
      <trkpt lat="48.87289" lon="2.09997">
        <ele>135</ele>
        <time>2018-11-08T10:00:54 01:00</time>
      </trkpt>
      <trkpt lat="48.87298" lon="2.09998">
        <ele>136</ele>
        <time>2018-11-08T10:01:03 01:00</time>
      </trkpt>
      <trkpt lat="48.87308" lon="2.09999">
        <ele>136</ele>
        <time>2018-11-08T10:01:12 01:00</time>
      </trkpt>
      <trkpt lat="48.87317" lon="2.1">
        <ele>137</ele>
        <time>2018-11-08T10:01:19 01:00</time>
      </trkpt>
      <trkpt lat="48.87326" lon="2.1">
        <ele>135</ele>
        <time>2018-11-08T10:01:27 01:00</time>
      </trkpt>
      <trkpt lat="48.87336" lon="2.10001">
        <ele>136</ele>
        <time>2018-11-08T10:01:37 01:00</time>
      </trkpt>
      <trkpt lat="48.87346" lon="2.10001">
        <ele>132</ele>
        <time>2018-11-08T10:01:48 01:00</time>
      </trkpt>
      <trkpt lat="48.87355" lon="2.09997">
        <ele>132</ele>
        <time>2018-11-08T10:01:59 01:00</time>
      </trkpt>
      <trkpt lat="48.87364" lon="2.09991">
        <ele>135</ele>
        <time>2018-11-08T10:02:08 01:00</time>
      </trkpt>
      <trkpt lat="48.87372" lon="2.09984">
        <ele>136</ele>
        <time>2018-11-08T10:02:18 01:00</time>
      </trkpt>
      <trkpt lat="48.87381" lon="2.0998">
        <ele>139</ele>
        <time>2018-11-08T10:02:27 01:00</time>
      </trkpt>
      <trkpt lat="48.8739" lon="2.09974">
        <ele>140</ele>
        <time>2018-11-08T10:02:37 01:00</time>
      </trkpt>
      <trkpt lat="48.87398" lon="2.09965">
        <ele>138</ele>
        <time>2018-11-08T10:02:49 01:00</time>
      </trkpt>
      <trkpt lat="48.87405" lon="2.09956">
        <ele>137</ele>
        <time>2018-11-08T10:03:01 01:00</time>
      </trkpt>
      <trkpt lat="48.87414" lon="2.09951">
        <ele>136</ele>
        <time>2018-11-08T10:03:10 01:00</time>
      </trkpt>
      <trkpt lat="48.87423" lon="2.09947">
        <ele>135</ele>
        <time>2018-11-08T10:03:21 01:00</time>
      </trkpt>
      <trkpt lat="48.87432" lon="2.09946">
        <ele>135</ele>
        <time>2018-11-08T10:03:30 01:00</time>
      </trkpt>
      <trkpt lat="48.87442" lon="2.09946">
        <ele>134</ele>
        <time>2018-11-08T10:03:40 01:00</time>
      </trkpt>
      <trkpt lat="48.87451" lon="2.09948">
        <ele>134</ele>
        <time>2018-11-08T10:03:51 01:00</time>
      </trkpt>
      <trkpt lat="48.87461" lon="2.0995">
        <ele>133</ele>
        <time>2018-11-08T10:04:01 01:00</time>
      </trkpt>
      <trkpt lat="48.8747" lon="2.09952">
        <ele>133</ele>
        <time>2018-11-08T10:04:11 01:00</time>
      </trkpt>
      <trkpt lat="48.8748" lon="2.09956">
        <ele>131</ele>
        <time>2018-11-08T10:04:21 01:00</time>
      </trkpt>
      <trkpt lat="48.87487" lon="2.09964">
        <ele>130</ele>
        <time>2018-11-08T10:04:33 01:00</time>
      </trkpt>
      <trkpt lat="48.87494" lon="2.09973">
        <ele>125</ele>
        <time>2018-11-08T10:04:47 01:00</time>
      </trkpt>
      <trkpt lat="48.87501" lon="2.09982">
        <ele>125</ele>
        <time>2018-11-08T10:04:56 01:00</time>
      </trkpt>
      <trkpt lat="48.87509" lon="2.09988">
        <ele>124</ele>
        <time>2018-11-08T10:05:05 01:00</time>
      </trkpt>
      <trkpt lat="48.87517" lon="2.09996">
        <ele>124</ele>
        <time>2018-11-08T10:05:13 01:00</time>
      </trkpt>
      <trkpt lat="48.87525" lon="2.10004">
        <ele>123</ele>
        <time>2018-11-08T10:05:24 01:00</time>
      </trkpt>
      <trkpt lat="48.87533" lon="2.10012">
        <ele>122</ele>
        <time>2018-11-08T10:05:33 01:00</time>
      </trkpt>
      <trkpt lat="48.87541" lon="2.1002">
        <ele>121</ele>
        <time>2018-11-08T10:05:43 01:00</time>
      </trkpt>
      <trkpt lat="48.87545" lon="2.10032">
        <ele>120</ele>
        <time>2018-11-08T10:06:22 01:00</time>
      </trkpt>
      <trkpt lat="48.87554" lon="2.10037">
        <ele>118</ele>
        <time>2018-11-08T10:06:35 01:00</time>
      </trkpt>
      <trkpt lat="48.87563" lon="2.10036">
        <ele>119</ele>
        <time>2018-11-08T10:06:46 01:00</time>
      </trkpt>
      <trkpt lat="48.87572" lon="2.10041">
        <ele>119</ele>
        <time>2018-11-08T10:06:55 01:00</time>
      </trkpt>
      <trkpt lat="48.8758" lon="2.1005">
        <ele>116</ele>
        <time>2018-11-08T10:07:06 01:00</time>
      </trkpt>
      <trkpt lat="48.87587" lon="2.1006">
        <ele>113</ele>
        <time>2018-11-08T10:07:16 01:00</time>
      </trkpt>
      <trkpt lat="48.87592" lon="2.10071">
        <ele>113</ele>
        <time>2018-11-08T10:07:27 01:00</time>
      </trkpt>
      <trkpt lat="48.87596" lon="2.10083">
        <ele>110</ele>
        <time>2018-11-08T10:07:36 01:00</time>
      </trkpt>
      <trkpt lat="48.876" lon="2.10097">
        <ele>106</ele>
        <time>2018-11-08T10:07:45 01:00</time>
      </trkpt>
      <trkpt lat="48.87604" lon="2.1011">
        <ele>106</ele>
        <time>2018-11-08T10:07:54 01:00</time>
      </trkpt>
      <trkpt lat="48.87606" lon="2.10124">
        <ele>103</ele>
        <time>2018-11-08T10:08:05 01:00</time>
      </trkpt>
      <trkpt lat="48.8761" lon="2.10137">
        <ele>103</ele>
        <time>2018-11-08T10:08:18 01:00</time>
      </trkpt>
      <trkpt lat="48.87614" lon="2.1015">
        <ele>104</ele>
        <time>2018-11-08T10:08:29 01:00</time>
      </trkpt>
      <trkpt lat="48.8762" lon="2.1016">
        <ele>107</ele>
        <time>2018-11-08T10:08:39 01:00</time>
      </trkpt>
      <trkpt lat="48.87628" lon="2.10168">
        <ele>111</ele>
        <time>2018-11-08T10:08:47 01:00</time>
      </trkpt>
      <trkpt lat="48.87635" lon="2.10178">
        <ele>111</ele>
        <time>2018-11-08T10:08:55 01:00</time>
      </trkpt>
      <trkpt lat="48.8764" lon="2.1019">
        <ele>109</ele>
        <time>2018-11-08T10:09:07 01:00</time>
      </trkpt>
      <trkpt lat="48.87644" lon="2.10203">
        <ele>107</ele>
        <time>2018-11-08T10:09:19 01:00</time>
      </trkpt>
      <trkpt lat="48.8765" lon="2.10215">
        <ele>107</ele>
        <time>2018-11-08T10:09:30 01:00</time>
      </trkpt>
      <trkpt lat="48.87655" lon="2.10227">
        <ele>110</ele>
        <time>2018-11-08T10:09:39 01:00</time>
      </trkpt>
      <trkpt lat="48.87661" lon="2.10239">
        <ele>109</ele>
        <time>2018-11-08T10:09:48 01:00</time>
      </trkpt>
      <trkpt lat="48.87666" lon="2.10251">
        <ele>112</ele>
        <time>2018-11-08T10:09:58 01:00</time>
      </trkpt>
      <trkpt lat="48.87672" lon="2.10263">
        <ele>114</ele>
        <time>2018-11-08T10:10:07 01:00</time>
      </trkpt>
      <trkpt lat="48.87678" lon="2.10275">
        <ele>113</ele>
        <time>2018-11-08T10:10:15 01:00</time>
      </trkpt>
      <trkpt lat="48.87684" lon="2.10286">
        <ele>111</ele>
        <time>2018-11-08T10:10:25 01:00</time>
      </trkpt>
      <trkpt lat="48.87689" lon="2.10298">
        <ele>109</ele>
        <time>2018-11-08T10:10:37 01:00</time>
      </trkpt>
      <trkpt lat="48.87695" lon="2.10309">
        <ele>115</ele>
        <time>2018-11-08T10:10:53 01:00</time>
      </trkpt>
      <trkpt lat="48.87703" lon="2.10316">
        <ele>115</ele>
        <time>2018-11-08T10:11:03 01:00</time>
      </trkpt>
      <trkpt lat="48.8771" lon="2.10326">
        <ele>117</ele>
        <time>2018-11-08T10:11:13 01:00</time>
      </trkpt>
      <trkpt lat="48.87717" lon="2.10335">
        <ele>117</ele>
        <time>2018-11-08T10:11:22 01:00</time>
      </trkpt>
      <trkpt lat="48.87724" lon="2.10344">
        <ele>117</ele>
        <time>2018-11-08T10:11:33 01:00</time>
      </trkpt>
      <trkpt lat="48.87732" lon="2.10353">
        <ele>116</ele>
        <time>2018-11-08T10:11:43 01:00</time>
      </trkpt>
      <trkpt lat="48.87739" lon="2.10363">
        <ele>115</ele>
        <time>2018-11-08T10:11:53 01:00</time>
      </trkpt>
      <trkpt lat="48.87745" lon="2.10373">
        <ele>116</ele>
        <time>2018-11-08T10:12:06 01:00</time>
      </trkpt>
      <trkpt lat="48.87752" lon="2.10384">
        <ele>117</ele>
        <time>2018-11-08T10:12:16 01:00</time>
      </trkpt>
      <trkpt lat="48.87907" lon="2.1057">
        <ele>119</ele>
        <time>2018-11-08T10:16:38 01:00</time>
      </trkpt>
      <trkpt lat="48.87914" lon="2.1058">
        <ele>122</ele>
        <time>2018-11-08T10:16:53 01:00</time>
      </trkpt>
      <trkpt lat="48.87923" lon="2.10586">
        <ele>120</ele>
        <time>2018-11-08T10:17:03 01:00</time>
      </trkpt>
      <trkpt lat="48.8793" lon="2.10595">
        <ele>117</ele>
        <time>2018-11-08T10:17:19 01:00</time>
      </trkpt>
      <trkpt lat="48.87938" lon="2.10603">
        <ele>118</ele>
        <time>2018-11-08T10:17:42 01:00</time>
      </trkpt>
      <trkpt lat="48.87945" lon="2.10612">
        <ele>118</ele>
        <time>2018-11-08T10:17:50 01:00</time>
      </trkpt>
      <trkpt lat="48.87951" lon="2.10623">
        <ele>120</ele>
        <time>2018-11-08T10:17:59 01:00</time>
      </trkpt>
      <trkpt lat="48.8796" lon="2.10627">
        <ele>120</ele>
        <time>2018-11-08T10:18:18 01:00</time>
      </trkpt>
      <trkpt lat="48.87968" lon="2.1062">
        <ele>119</ele>
        <time>2018-11-08T10:18:27 01:00</time>
      </trkpt>
      <trkpt lat="48.87974" lon="2.10608">
        <ele>122</ele>
        <time>2018-11-08T10:18:40 01:00</time>
      </trkpt>
      <trkpt lat="48.8798" lon="2.10597">
        <ele>122</ele>
        <time>2018-11-08T10:18:53 01:00</time>
      </trkpt>
      <trkpt lat="48.87985" lon="2.10585">
        <ele>121</ele>
        <time>2018-11-08T10:19:06 01:00</time>
      </trkpt>
      <trkpt lat="48.87991" lon="2.10575">
        <ele>126</ele>
        <time>2018-11-08T10:19:22 01:00</time>
      </trkpt>
      <trkpt lat="48.87996" lon="2.10562">
        <ele>126</ele>
        <time>2018-11-08T10:19:32 01:00</time>
      </trkpt>
      <trkpt lat="48.88" lon="2.10549">
        <ele>129</ele>
        <time>2018-11-08T10:19:51 01:00</time>
      </trkpt>
      <trkpt lat="48.88006" lon="2.10538">
        <ele>130</ele>
        <time>2018-11-08T10:20:05 01:00</time>
      </trkpt>
      <trkpt lat="48.88014" lon="2.10547">
        <ele>132</ele>
        <time>2018-11-08T10:21:12 01:00</time>
      </trkpt>
      <trkpt lat="48.88021" lon="2.10555">
        <ele>134</ele>
        <time>2018-11-08T10:21:21 01:00</time>
      </trkpt>
      <trkpt lat="48.8803" lon="2.10561">
        <ele>135</ele>
        <time>2018-11-08T10:21:30 01:00</time>
      </trkpt>
      <trkpt lat="48.88038" lon="2.10568">
        <ele>132</ele>
        <time>2018-11-08T10:21:40 01:00</time>
      </trkpt>
      <trkpt lat="48.88047" lon="2.10576">
        <ele>130</ele>
        <time>2018-11-08T10:21:51 01:00</time>
      </trkpt>
      <trkpt lat="48.88056" lon="2.10581">
        <ele>129</ele>
        <time>2018-11-08T10:22:02 01:00</time>
      </trkpt>
      <trkpt lat="48.88065" lon="2.10582">
        <ele>124</ele>
        <time>2018-11-08T10:22:15 01:00</time>
      </trkpt>
      <trkpt lat="48.88074" lon="2.10582">
        <ele>126</ele>
        <time>2018-11-08T10:22:24 01:00</time>
      </trkpt>
      <trkpt lat="48.88082" lon="2.10573">
        <ele>124</ele>
        <time>2018-11-08T10:22:35 01:00</time>
      </trkpt>
      <trkpt lat="48.88091" lon="2.10567">
        <ele>124</ele>
        <time>2018-11-08T10:22:45 01:00</time>
      </trkpt>
      <trkpt lat="48.88101" lon="2.10564">
        <ele>125</ele>
        <time>2018-11-08T10:22:52 01:00</time>
      </trkpt>
      <trkpt lat="48.8811" lon="2.10559">
        <ele>123</ele>
        <time>2018-11-08T10:23:07 01:00</time>
      </trkpt>
      <trkpt lat="48.88118" lon="2.10553">
        <ele>123</ele>
        <time>2018-11-08T10:23:17 01:00</time>
      </trkpt>
      <trkpt lat="48.88127" lon="2.10547">
        <ele>125</ele>
        <time>2018-11-08T10:23:26 01:00</time>
      </trkpt>
      <trkpt lat="48.88135" lon="2.1054">
        <ele>122</ele>
        <time>2018-11-08T10:23:37 01:00</time>
      </trkpt>
      <trkpt lat="48.88144" lon="2.10533">
        <ele>119</ele>
        <time>2018-11-08T10:23:52 01:00</time>
      </trkpt>
      <trkpt lat="48.88152" lon="2.10527">
        <ele>117</ele>
        <time>2018-11-08T10:24:04 01:00</time>
      </trkpt>
      <trkpt lat="48.88161" lon="2.10523">
        <ele>120</ele>
        <time>2018-11-08T10:24:16 01:00</time>
      </trkpt>
      <trkpt lat="48.88171" lon="2.10518">
        <ele>121</ele>
        <time>2018-11-08T10:24:23 01:00</time>
      </trkpt>
      <trkpt lat="48.8818" lon="2.10515">
        <ele>123</ele>
        <time>2018-11-08T10:24:34 01:00</time>
      </trkpt>
      <trkpt lat="48.88189" lon="2.10514">
        <ele>125</ele>
        <time>2018-11-08T10:24:42 01:00</time>
      </trkpt>
      <trkpt lat="48.88198" lon="2.1051">
        <ele>127</ele>
        <time>2018-11-08T10:24:53 01:00</time>
      </trkpt>
      <trkpt lat="48.88207" lon="2.10504">
        <ele>126</ele>
        <time>2018-11-08T10:25:09 01:00</time>
      </trkpt>
      <trkpt lat="48.88216" lon="2.10501">
        <ele>122</ele>
        <time>2018-11-08T10:25:30 01:00</time>
      </trkpt>
      <trkpt lat="48.88225" lon="2.10495">
        <ele>119</ele>
        <time>2018-11-08T10:25:42 01:00</time>
      </trkpt>
      <trkpt lat="48.88233" lon="2.10488">
        <ele>116</ele>
        <time>2018-11-08T10:25:55 01:00</time>
      </trkpt>
      <trkpt lat="48.88242" lon="2.10484">
        <ele>118</ele>
        <time>2018-11-08T10:26:07 01:00</time>
      </trkpt>
      <trkpt lat="48.88251" lon="2.10477">
        <ele>115</ele>
        <time>2018-11-08T10:26:26 01:00</time>
      </trkpt>
      <trkpt lat="48.8826" lon="2.10475">
        <ele>115</ele>
        <time>2018-11-08T10:26:37 01:00</time>
      </trkpt>
      <trkpt lat="48.88269" lon="2.10471">
        <ele>116</ele>
        <time>2018-11-08T10:26:45 01:00</time>
      </trkpt>
      <trkpt lat="48.88279" lon="2.10469">
        <ele>116</ele>
        <time>2018-11-08T10:26:54 01:00</time>
      </trkpt>
      <trkpt lat="48.88288" lon="2.10465">
        <ele>116</ele>
        <time>2018-11-08T10:27:03 01:00</time>
      </trkpt>
      <trkpt lat="48.88296" lon="2.1046">
        <ele>116</ele>
        <time>2018-11-08T10:27:11 01:00</time>
      </trkpt>
      <trkpt lat="48.88305" lon="2.10456">
        <ele>117</ele>
        <time>2018-11-08T10:27:19 01:00</time>
      </trkpt>
      <trkpt lat="48.88313" lon="2.10449">
        <ele>114</ele>
        <time>2018-11-08T10:27:28 01:00</time>
      </trkpt>
      <trkpt lat="48.88322" lon="2.10443">
        <ele>116</ele>
        <time>2018-11-08T10:27:38 01:00</time>
      </trkpt>
      <trkpt lat="48.8833" lon="2.10434">
        <ele>118</ele>
        <time>2018-11-08T10:27:49 01:00</time>
      </trkpt>
      <trkpt lat="48.88337" lon="2.10426">
        <ele>119</ele>
        <time>2018-11-08T10:27:58 01:00</time>
      </trkpt>
      <trkpt lat="48.88346" lon="2.10421">
        <ele>123</ele>
        <time>2018-11-08T10:28:10 01:00</time>
      </trkpt>
      <trkpt lat="48.88355" lon="2.10415">
        <ele>124</ele>
        <time>2018-11-08T10:28:18 01:00</time>
      </trkpt>
      <trkpt lat="48.88362" lon="2.10407">
        <ele>123</ele>
        <time>2018-11-08T10:28:26 01:00</time>
      </trkpt>
      <trkpt lat="48.8837" lon="2.10398">
        <ele>122</ele>
        <time>2018-11-08T10:28:37 01:00</time>
      </trkpt>
      <trkpt lat="48.88377" lon="2.10389">
        <ele>120</ele>
        <time>2018-11-08T10:28:47 01:00</time>
      </trkpt>
      <trkpt lat="48.88384" lon="2.10379">
        <ele>122</ele>
        <time>2018-11-08T10:28:57 01:00</time>
      </trkpt>
      <trkpt lat="48.88392" lon="2.10371">
        <ele>123</ele>
        <time>2018-11-08T10:29:12 01:00</time>
      </trkpt>
      <trkpt lat="48.88401" lon="2.10364">
        <ele>121</ele>
        <time>2018-11-08T10:29:23 01:00</time>
      </trkpt>
      <trkpt lat="48.88409" lon="2.10359">
        <ele>123</ele>
        <time>2018-11-08T10:29:35 01:00</time>
      </trkpt>
      <trkpt lat="48.88414" lon="2.10347">
        <ele>123</ele>
        <time>2018-11-08T10:30:20 01:00</time>
      </trkpt>
      <trkpt lat="48.88406" lon="2.10356">
        <ele>113</ele>
        <time>2018-11-08T10:30:44 01:00</time>
      </trkpt>
      <trkpt lat="48.88414" lon="2.10348">
        <ele>110</ele>
        <time>2018-11-08T10:31:57 01:00</time>
      </trkpt>
      <trkpt lat="48.88423" lon="2.10341">
        <ele>110</ele>
        <time>2018-11-08T10:32:07 01:00</time>
      </trkpt>
      <trkpt lat="48.88428" lon="2.10329">
        <ele>112</ele>
        <time>2018-11-08T10:32:17 01:00</time>
      </trkpt>
      <trkpt lat="48.88436" lon="2.10323">
        <ele>111</ele>
        <time>2018-11-08T10:32:30 01:00</time>
      </trkpt>
      <trkpt lat="48.88444" lon="2.10315">
        <ele>117</ele>
        <time>2018-11-08T10:32:46 01:00</time>
      </trkpt>
      <trkpt lat="48.88453" lon="2.10312">
        <ele>119</ele>
        <time>2018-11-08T10:32:56 01:00</time>
      </trkpt>
      <trkpt lat="48.88462" lon="2.10308">
        <ele>121</ele>
        <time>2018-11-08T10:33:06 01:00</time>
      </trkpt>
      <trkpt lat="48.88471" lon="2.10306">
        <ele>123</ele>
        <time>2018-11-08T10:33:13 01:00</time>
      </trkpt>
      <trkpt lat="48.88481" lon="2.10302">
        <ele>124</ele>
        <time>2018-11-08T10:33:21 01:00</time>
      </trkpt>
      <trkpt lat="48.88488" lon="2.10294">
        <ele>120</ele>
        <time>2018-11-08T10:33:30 01:00</time>
      </trkpt>
      <trkpt lat="48.88497" lon="2.1029">
        <ele>117</ele>
        <time>2018-11-08T10:33:38 01:00</time>
      </trkpt>
      <trkpt lat="48.88507" lon="2.10288">
        <ele>110</ele>
        <time>2018-11-08T10:33:52 01:00</time>
      </trkpt>
      <trkpt lat="48.88515" lon="2.10279">
        <ele>112</ele>
        <time>2018-11-08T10:34:02 01:00</time>
      </trkpt>
      <trkpt lat="48.8852" lon="2.10268">
        <ele>108</ele>
        <time>2018-11-08T10:34:18 01:00</time>
      </trkpt>
      <trkpt lat="48.88526" lon="2.10257">
        <ele>108</ele>
        <time>2018-11-08T10:34:30 01:00</time>
      </trkpt>
      <trkpt lat="48.88534" lon="2.1025">
        <ele>107</ele>
        <time>2018-11-08T10:34:40 01:00</time>
      </trkpt>
      <trkpt lat="48.88543" lon="2.10243">
        <ele>110</ele>
        <time>2018-11-08T10:34:50 01:00</time>
      </trkpt>
      <trkpt lat="48.88548" lon="2.10232">
        <ele>115</ele>
        <time>2018-11-08T10:35:01 01:00</time>
      </trkpt>
      <trkpt lat="48.88546" lon="2.10218">
        <ele>112</ele>
        <time>2018-11-08T10:35:12 01:00</time>
      </trkpt>
      <trkpt lat="48.88541" lon="2.10206">
        <ele>108</ele>
        <time>2018-11-08T10:35:24 01:00</time>
      </trkpt>
      <trkpt lat="48.88538" lon="2.10192">
        <ele>107</ele>
        <time>2018-11-08T10:35:35 01:00</time>
      </trkpt>
      <trkpt lat="48.88537" lon="2.10178">
        <ele>106</ele>
        <time>2018-11-08T10:35:45 01:00</time>
      </trkpt>
      <trkpt lat="48.88536" lon="2.10164">
        <ele>108</ele>
        <time>2018-11-08T10:35:54 01:00</time>
      </trkpt>
      <trkpt lat="48.88536" lon="2.1015">
        <ele>105</ele>
        <time>2018-11-08T10:36:04 01:00</time>
      </trkpt>
      <trkpt lat="48.88533" lon="2.10137">
        <ele>105</ele>
        <time>2018-11-08T10:36:14 01:00</time>
      </trkpt>
      <trkpt lat="48.88538" lon="2.10125">
        <ele>107</ele>
        <time>2018-11-08T10:37:25 01:00</time>
      </trkpt>
      <trkpt lat="48.88546" lon="2.10133">
        <ele>105</ele>
        <time>2018-11-08T10:37:55 01:00</time>
      </trkpt>
      <trkpt lat="48.88552" lon="2.10145">
        <ele>106</ele>
        <time>2018-11-08T10:38:04 01:00</time>
      </trkpt>
      <trkpt lat="48.88559" lon="2.10155">
        <ele>106</ele>
        <time>2018-11-08T10:38:12 01:00</time>
      </trkpt>
      <trkpt lat="48.88566" lon="2.10164">
        <ele>107</ele>
        <time>2018-11-08T10:38:20 01:00</time>
      </trkpt>
      <trkpt lat="48.88573" lon="2.10174">
        <ele>110</ele>
        <time>2018-11-08T10:38:28 01:00</time>
      </trkpt>
      <trkpt lat="48.88581" lon="2.10184">
        <ele>109</ele>
        <time>2018-11-08T10:38:37 01:00</time>
      </trkpt>
      <trkpt lat="48.88586" lon="2.10196">
        <ele>108</ele>
        <time>2018-11-08T10:38:46 01:00</time>
      </trkpt>
      <trkpt lat="48.8859" lon="2.1021">
        <ele>105</ele>
        <time>2018-11-08T10:38:55 01:00</time>
      </trkpt>
      <trkpt lat="48.88592" lon="2.10223">
        <ele>108</ele>
        <time>2018-11-08T10:39:15 01:00</time>
      </trkpt>
      <trkpt lat="48.8859" lon="2.10238">
        <ele>104</ele>
        <time>2018-11-08T10:39:23 01:00</time>
      </trkpt>
      <trkpt lat="48.88592" lon="2.10252">
        <ele>105</ele>
        <time>2018-11-08T10:39:33 01:00</time>
      </trkpt>
      <trkpt lat="48.8859" lon="2.10266">
        <ele>102</ele>
        <time>2018-11-08T10:39:42 01:00</time>
      </trkpt>
      <trkpt lat="48.88589" lon="2.1028">
        <ele>104</ele>
        <time>2018-11-08T10:39:51 01:00</time>
      </trkpt>
      <trkpt lat="48.88589" lon="2.10295">
        <ele>102</ele>
        <time>2018-11-08T10:39:59 01:00</time>
      </trkpt>
      <trkpt lat="48.88593" lon="2.10308">
        <ele>107</ele>
        <time>2018-11-08T10:40:10 01:00</time>
      </trkpt>
      <trkpt lat="48.88602" lon="2.10314">
        <ele>111</ele>
        <time>2018-11-08T10:40:24 01:00</time>
      </trkpt>
      <trkpt lat="48.88594" lon="2.10323">
        <ele>98</ele>
        <time>2018-11-08T10:40:40 01:00</time>
      </trkpt>
      <trkpt lat="48.88602" lon="2.10332">
        <ele>89</ele>
        <time>2018-11-08T10:42:37 01:00</time>
      </trkpt>
      <trkpt lat="48.88611" lon="2.10331">
        <ele>87</ele>
        <time>2018-11-08T10:42:49 01:00</time>
      </trkpt>
      <trkpt lat="48.8862" lon="2.10336">
        <ele>86</ele>
        <time>2018-11-08T10:42:58 01:00</time>
      </trkpt>
      <trkpt lat="48.88629" lon="2.10331">
        <ele>85</ele>
        <time>2018-11-08T10:43:09 01:00</time>
      </trkpt>
      <trkpt lat="48.88638" lon="2.10327">
        <ele>86</ele>
        <time>2018-11-08T10:43:18 01:00</time>
      </trkpt>
      <trkpt lat="48.88645" lon="2.10318">
        <ele>88</ele>
        <time>2018-11-08T10:43:28 01:00</time>
      </trkpt>
      <trkpt lat="48.88653" lon="2.1031">
        <ele>84</ele>
        <time>2018-11-08T10:43:39 01:00</time>
      </trkpt>
      <trkpt lat="48.88659" lon="2.10299">
        <ele>85</ele>
        <time>2018-11-08T10:43:52 01:00</time>
      </trkpt>
      <trkpt lat="48.88664" lon="2.10288">
        <ele>88</ele>
        <time>2018-11-08T10:44:42 01:00</time>
      </trkpt>
      <trkpt lat="48.88671" lon="2.10278">
        <ele>87</ele>
        <time>2018-11-08T10:44:54 01:00</time>
      </trkpt>
      <trkpt lat="48.88679" lon="2.1027">
        <ele>88</ele>
        <time>2018-11-08T10:45:04 01:00</time>
      </trkpt>
      <trkpt lat="48.88688" lon="2.10263">
        <ele>90</ele>
        <time>2018-11-08T10:45:13 01:00</time>
      </trkpt>
      <trkpt lat="48.88697" lon="2.10258">
        <ele>89</ele>
        <time>2018-11-08T10:45:23 01:00</time>
      </trkpt>
      <trkpt lat="48.88705" lon="2.10253">
        <ele>87</ele>
        <time>2018-11-08T10:45:35 01:00</time>
      </trkpt>
      <trkpt lat="48.88715" lon="2.10249">
        <ele>86</ele>
        <time>2018-11-08T10:45:48 01:00</time>
      </trkpt>
      <trkpt lat="48.88725" lon="2.10247">
        <ele>84</ele>
        <time>2018-11-08T10:45:56 01:00</time>
      </trkpt>
      <trkpt lat="48.88734" lon="2.10243">
        <ele>85</ele>
        <time>2018-11-08T10:46:06 01:00</time>
      </trkpt>
      <trkpt lat="48.88743" lon="2.10241">
        <ele>84</ele>
        <time>2018-11-08T10:46:16 01:00</time>
      </trkpt>
      <trkpt lat="48.88752" lon="2.10238">
        <ele>83</ele>
        <time>2018-11-08T10:46:27 01:00</time>
      </trkpt>
      <trkpt lat="48.88762" lon="2.10237">
        <ele>80</ele>
        <time>2018-11-08T10:46:37 01:00</time>
      </trkpt>
      <trkpt lat="48.88771" lon="2.10237">
        <ele>80</ele>
        <time>2018-11-08T10:46:45 01:00</time>
      </trkpt>
      <trkpt lat="48.8878" lon="2.1024">
        <ele>76</ele>
        <time>2018-11-08T10:46:53 01:00</time>
      </trkpt>
      <trkpt lat="48.88788" lon="2.10246">
        <ele>74</ele>
        <time>2018-11-08T10:47:05 01:00</time>
      </trkpt>
      <trkpt lat="48.88796" lon="2.10253">
        <ele>71</ele>
        <time>2018-11-08T10:47:18 01:00</time>
      </trkpt>
      <trkpt lat="48.88805" lon="2.1026">
        <ele>73</ele>
        <time>2018-11-08T10:47:30 01:00</time>
      </trkpt>
      <trkpt lat="48.88813" lon="2.10267">
        <ele>72</ele>
        <time>2018-11-08T10:47:40 01:00</time>
      </trkpt>
      <trkpt lat="48.88822" lon="2.10272">
        <ele>68</ele>
        <time>2018-11-08T10:47:52 01:00</time>
      </trkpt>
      <trkpt lat="48.88831" lon="2.10277">
        <ele>69</ele>
        <time>2018-11-08T10:48:01 01:00</time>
      </trkpt>
      <trkpt lat="48.88839" lon="2.10282">
        <ele>69</ele>
        <time>2018-11-08T10:48:07 01:00</time>
      </trkpt>
      <trkpt lat="48.88849" lon="2.10287">
        <ele>71</ele>
        <time>2018-11-08T10:48:14 01:00</time>
      </trkpt>
      <trkpt lat="48.88857" lon="2.10292">
        <ele>70</ele>
        <time>2018-11-08T10:48:23 01:00</time>
      </trkpt>
      <trkpt lat="48.88862" lon="2.10303">
        <ele>69</ele>
        <time>2018-11-08T10:48:41 01:00</time>
      </trkpt>
      <trkpt lat="48.88871" lon="2.10309">
        <ele>69</ele>
        <time>2018-11-08T10:48:51 01:00</time>
      </trkpt>
      <trkpt lat="48.88879" lon="2.10317">
        <ele>71</ele>
        <time>2018-11-08T10:49:01 01:00</time>
      </trkpt>
      <trkpt lat="48.88885" lon="2.10329">
        <ele>72</ele>
        <time>2018-11-08T10:49:11 01:00</time>
      </trkpt>
      <trkpt lat="48.88891" lon="2.10341">
        <ele>72</ele>
        <time>2018-11-08T10:49:22 01:00</time>
      </trkpt>
      <trkpt lat="48.88896" lon="2.10352">
        <ele>74</ele>
        <time>2018-11-08T10:49:34 01:00</time>
      </trkpt>
      <trkpt lat="48.88903" lon="2.10362">
        <ele>74</ele>
        <time>2018-11-08T10:49:42 01:00</time>
      </trkpt>
      <trkpt lat="48.88911" lon="2.10371">
        <ele>76</ele>
        <time>2018-11-08T10:49:53 01:00</time>
      </trkpt>
      <trkpt lat="48.88917" lon="2.10382">
        <ele>75</ele>
        <time>2018-11-08T10:50:05 01:00</time>
      </trkpt>
      <trkpt lat="48.88918" lon="2.10396">
        <ele>75</ele>
        <time>2018-11-08T10:50:43 01:00</time>
      </trkpt>
      <trkpt lat="48.88921" lon="2.10409">
        <ele>74</ele>
        <time>2018-11-08T10:50:50 01:00</time>
      </trkpt>
      <trkpt lat="48.88921" lon="2.10423">
        <ele>73</ele>
        <time>2018-11-08T10:51:04 01:00</time>
      </trkpt>
      <trkpt lat="48.88912" lon="2.10424">
        <ele>72</ele>
        <time>2018-11-08T10:51:12 01:00</time>
      </trkpt>
      <trkpt lat="48.88903" lon="2.10427">
        <ele>72</ele>
        <time>2018-11-08T10:51:21 01:00</time>
      </trkpt>
      <trkpt lat="48.88894" lon="2.1043">
        <ele>71</ele>
        <time>2018-11-08T10:51:29 01:00</time>
      </trkpt>
      <trkpt lat="48.88884" lon="2.10434">
        <ele>71</ele>
        <time>2018-11-08T10:51:38 01:00</time>
      </trkpt>
      <trkpt lat="48.88876" lon="2.10438">
        <ele>72</ele>
        <time>2018-11-08T10:51:48 01:00</time>
      </trkpt>
      <trkpt lat="48.88868" lon="2.10446">
        <ele>69</ele>
        <time>2018-11-08T10:51:59 01:00</time>
      </trkpt>
      <trkpt lat="48.88859" lon="2.10452">
        <ele>69</ele>
        <time>2018-11-08T10:52:14 01:00</time>
      </trkpt>
      <trkpt lat="48.8885" lon="2.10457">
        <ele>71</ele>
        <time>2018-11-08T10:52:24 01:00</time>
      </trkpt>
      <trkpt lat="48.88842" lon="2.10463">
        <ele>68</ele>
        <time>2018-11-08T10:52:34 01:00</time>
      </trkpt>
      <trkpt lat="48.88833" lon="2.10469">
        <ele>68</ele>
        <time>2018-11-08T10:52:44 01:00</time>
      </trkpt>
      <trkpt lat="48.88824" lon="2.10469">
        <ele>69</ele>
        <time>2018-11-08T10:52:54 01:00</time>
      </trkpt>
      <trkpt lat="48.88815" lon="2.10472">
        <ele>68</ele>
        <time>2018-11-08T10:53:04 01:00</time>
      </trkpt>
      <trkpt lat="48.88807" lon="2.10481">
        <ele>64</ele>
        <time>2018-11-08T10:53:16 01:00</time>
      </trkpt>
      <trkpt lat="48.88798" lon="2.10486">
        <ele>65</ele>
        <time>2018-11-08T10:53:25 01:00</time>
      </trkpt>
      <trkpt lat="48.8879" lon="2.10495">
        <ele>67</ele>
        <time>2018-11-08T10:53:34 01:00</time>
      </trkpt>
      <trkpt lat="48.88781" lon="2.10499">
        <ele>68</ele>
        <time>2018-11-08T10:53:43 01:00</time>
      </trkpt>
      <trkpt lat="48.88771" lon="2.10502">
        <ele>68</ele>
        <time>2018-11-08T10:53:53 01:00</time>
      </trkpt>
      <trkpt lat="48.88762" lon="2.10507">
        <ele>68</ele>
        <time>2018-11-08T10:54:02 01:00</time>
      </trkpt>
      <trkpt lat="48.88754" lon="2.10513">
        <ele>68</ele>
        <time>2018-11-08T10:54:12 01:00</time>
      </trkpt>
      <trkpt lat="48.88745" lon="2.10517">
        <ele>68</ele>
        <time>2018-11-08T10:54:21 01:00</time>
      </trkpt>
      <trkpt lat="48.88736" lon="2.10521">
        <ele>71</ele>
        <time>2018-11-08T10:54:29 01:00</time>
      </trkpt>
      <trkpt lat="48.88726" lon="2.10525">
        <ele>70</ele>
        <time>2018-11-08T10:54:37 01:00</time>
      </trkpt>
      <trkpt lat="48.88718" lon="2.1053">
        <ele>70</ele>
        <time>2018-11-08T10:54:45 01:00</time>
      </trkpt>
      <trkpt lat="48.88709" lon="2.10536">
        <ele>72</ele>
        <time>2018-11-08T10:54:54 01:00</time>
      </trkpt>
      <trkpt lat="48.887" lon="2.10538">
        <ele>70</ele>
        <time>2018-11-08T10:55:03 01:00</time>
      </trkpt>
      <trkpt lat="48.88691" lon="2.10541">
        <ele>70</ele>
        <time>2018-11-08T10:55:13 01:00</time>
      </trkpt>
      <trkpt lat="48.88682" lon="2.10545">
        <ele>69</ele>
        <time>2018-11-08T10:55:22 01:00</time>
      </trkpt>
      <trkpt lat="48.88673" lon="2.1055">
        <ele>70</ele>
        <time>2018-11-08T10:55:31 01:00</time>
      </trkpt>
      <trkpt lat="48.88664" lon="2.10554">
        <ele>69</ele>
        <time>2018-11-08T10:55:39 01:00</time>
      </trkpt>
      <trkpt lat="48.88655" lon="2.10559">
        <ele>70</ele>
        <time>2018-11-08T10:55:48 01:00</time>
      </trkpt>
      <trkpt lat="48.88646" lon="2.10566">
        <ele>70</ele>
        <time>2018-11-08T10:55:57 01:00</time>
      </trkpt>
      <trkpt lat="48.88638" lon="2.10573">
        <ele>69</ele>
        <time>2018-11-08T10:56:06 01:00</time>
      </trkpt>
      <trkpt lat="48.88539" lon="2.10686">
        <ele>86</ele>
        <time>2018-11-08T10:58:37 01:00</time>
      </trkpt>
      <trkpt lat="48.8853" lon="2.10681">
        <ele>69</ele>
        <time>2018-11-08T10:58:52 01:00</time>
      </trkpt>
      <trkpt lat="48.88521" lon="2.10677">
        <ele>72</ele>
        <time>2018-11-08T10:59:12 01:00</time>
      </trkpt>
      <trkpt lat="48.88514" lon="2.10685">
        <ele>70</ele>
        <time>2018-11-08T10:59:22 01:00</time>
      </trkpt>
      <trkpt lat="48.88504" lon="2.10687">
        <ele>68</ele>
        <time>2018-11-08T10:59:33 01:00</time>
      </trkpt>
      <trkpt lat="48.88495" lon="2.10687">
        <ele>70</ele>
        <time>2018-11-08T10:59:44 01:00</time>
      </trkpt>
      <trkpt lat="48.88486" lon="2.10684">
        <ele>71</ele>
        <time>2018-11-08T10:59:55 01:00</time>
      </trkpt>
      <trkpt lat="48.88477" lon="2.10678">
        <ele>71</ele>
        <time>2018-11-08T11:00:05 01:00</time>
      </trkpt>
      <trkpt lat="48.88469" lon="2.10682">
        <ele>73</ele>
        <time>2018-11-08T11:00:15 01:00</time>
      </trkpt>
      <trkpt lat="48.88466" lon="2.10695">
        <ele>76</ele>
        <time>2018-11-08T11:00:26 01:00</time>
      </trkpt>
      <trkpt lat="48.88458" lon="2.10702">
        <ele>77</ele>
        <time>2018-11-08T11:00:36 01:00</time>
      </trkpt>
      <trkpt lat="48.88449" lon="2.10708">
        <ele>76</ele>
        <time>2018-11-08T11:00:45 01:00</time>
      </trkpt>
      <trkpt lat="48.8844" lon="2.10712">
        <ele>76</ele>
        <time>2018-11-08T11:00:53 01:00</time>
      </trkpt>
      <trkpt lat="48.88431" lon="2.10716">
        <ele>76</ele>
        <time>2018-11-08T11:01:04 01:00</time>
      </trkpt>
      <trkpt lat="48.88423" lon="2.10723">
        <ele>76</ele>
        <time>2018-11-08T11:01:15 01:00</time>
      </trkpt>
      <trkpt lat="48.88414" lon="2.10729">
        <ele>75</ele>
        <time>2018-11-08T11:01:25 01:00</time>
      </trkpt>
      <trkpt lat="48.88405" lon="2.10733">
        <ele>74</ele>
        <time>2018-11-08T11:01:35 01:00</time>
      </trkpt>
      <trkpt lat="48.88396" lon="2.10739">
        <ele>76</ele>
        <time>2018-11-08T11:01:46 01:00</time>
      </trkpt>
      <trkpt lat="48.88388" lon="2.10733">
        <ele>74</ele>
        <time>2018-11-08T11:01:59 01:00</time>
      </trkpt>
      <trkpt lat="48.88385" lon="2.1072">
        <ele>75</ele>
        <time>2018-11-08T11:02:12 01:00</time>
      </trkpt>
      <trkpt lat="48.88377" lon="2.10713">
        <ele>76</ele>
        <time>2018-11-08T11:02:26 01:00</time>
      </trkpt>
      <trkpt lat="48.88368" lon="2.10719">
        <ele>74</ele>
        <time>2018-11-08T11:02:36 01:00</time>
      </trkpt>
      <trkpt lat="48.88359" lon="2.10723">
        <ele>74</ele>
        <time>2018-11-08T11:02:45 01:00</time>
      </trkpt>
      <trkpt lat="48.88351" lon="2.1073">
        <ele>74</ele>
        <time>2018-11-08T11:02:57 01:00</time>
      </trkpt>
      <trkpt lat="48.88343" lon="2.10737">
        <ele>75</ele>
        <time>2018-11-08T11:03:08 01:00</time>
      </trkpt>
      <trkpt lat="48.88335" lon="2.10744">
        <ele>73</ele>
        <time>2018-11-08T11:03:17 01:00</time>
      </trkpt>
      <trkpt lat="48.88327" lon="2.10752">
        <ele>72</ele>
        <time>2018-11-08T11:03:26 01:00</time>
      </trkpt>
      <trkpt lat="48.88326" lon="2.10766">
        <ele>73</ele>
        <time>2018-11-08T11:03:39 01:00</time>
      </trkpt>
      <trkpt lat="48.88333" lon="2.10777">
        <ele>71</ele>
        <time>2018-11-08T11:03:50 01:00</time>
      </trkpt>
      <trkpt lat="48.88339" lon="2.10789">
        <ele>71</ele>
        <time>2018-11-08T11:04:00 01:00</time>
      </trkpt>
      <trkpt lat="48.88341" lon="2.10803">
        <ele>71</ele>
        <time>2018-11-08T11:04:09 01:00</time>
      </trkpt>
      <trkpt lat="48.88344" lon="2.10816">
        <ele>74</ele>
        <time>2018-11-08T11:04:18 01:00</time>
      </trkpt>
      <trkpt lat="48.88349" lon="2.10829">
        <ele>74</ele>
        <time>2018-11-08T11:04:28 01:00</time>
      </trkpt>
      <trkpt lat="48.88354" lon="2.1084">
        <ele>72</ele>
        <time>2018-11-08T11:04:40 01:00</time>
      </trkpt>
      <trkpt lat="48.88362" lon="2.10848">
        <ele>70</ele>
        <time>2018-11-08T11:04:54 01:00</time>
      </trkpt>
      <trkpt lat="48.88362" lon="2.10862">
        <ele>72</ele>
        <time>2018-11-08T11:05:05 01:00</time>
      </trkpt>
      <trkpt lat="48.88367" lon="2.10874">
        <ele>72</ele>
        <time>2018-11-08T11:05:17 01:00</time>
      </trkpt>
      <trkpt lat="48.88376" lon="2.10881">
        <ele>69</ele>
        <time>2018-11-08T11:05:59 01:00</time>
      </trkpt>
      <trkpt lat="48.88372" lon="2.10894">
        <ele>70</ele>
        <time>2018-11-08T11:06:07 01:00</time>
      </trkpt>
      <trkpt lat="48.88365" lon="2.10902">
        <ele>71</ele>
        <time>2018-11-08T11:06:16 01:00</time>
      </trkpt>
      <trkpt lat="48.88358" lon="2.10911">
        <ele>71</ele>
        <time>2018-11-08T11:06:28 01:00</time>
      </trkpt>
      <trkpt lat="48.88349" lon="2.10918">
        <ele>70</ele>
        <time>2018-11-08T11:06:40 01:00</time>
      </trkpt>
      <trkpt lat="48.8834" lon="2.10924">
        <ele>73</ele>
        <time>2018-11-08T11:07:00 01:00</time>
      </trkpt>
      <trkpt lat="48.88331" lon="2.10932">
        <ele>68</ele>
        <time>2018-11-08T11:07:09 01:00</time>
      </trkpt>
      <trkpt lat="48.88323" lon="2.10936">
        <ele>68</ele>
        <time>2018-11-08T11:07:19 01:00</time>
      </trkpt>
      <trkpt lat="48.88314" lon="2.10943">
        <ele>66</ele>
        <time>2018-11-08T11:07:30 01:00</time>
      </trkpt>
      <trkpt lat="48.88306" lon="2.10949">
        <ele>68</ele>
        <time>2018-11-08T11:07:39 01:00</time>
      </trkpt>
      <trkpt lat="48.88296" lon="2.10954">
        <ele>67</ele>
        <time>2018-11-08T11:07:48 01:00</time>
      </trkpt>
      <trkpt lat="48.88287" lon="2.10959">
        <ele>69</ele>
        <time>2018-11-08T11:07:58 01:00</time>
      </trkpt>
      <trkpt lat="48.88279" lon="2.10966">
        <ele>68</ele>
        <time>2018-11-08T11:08:08 01:00</time>
      </trkpt>
      <trkpt lat="48.8827" lon="2.1097">
        <ele>71</ele>
        <time>2018-11-08T11:08:18 01:00</time>
      </trkpt>
      <trkpt lat="48.8826" lon="2.10976">
        <ele>72</ele>
        <time>2018-11-08T11:08:28 01:00</time>
      </trkpt>
      <trkpt lat="48.88252" lon="2.10981">
        <ele>70</ele>
        <time>2018-11-08T11:08:38 01:00</time>
      </trkpt>
      <trkpt lat="48.88243" lon="2.10989">
        <ele>70</ele>
        <time>2018-11-08T11:08:48 01:00</time>
      </trkpt>
      <trkpt lat="48.88239" lon="2.11001">
        <ele>70</ele>
        <time>2018-11-08T11:09:03 01:00</time>
      </trkpt>
      <trkpt lat="48.88241" lon="2.11015">
        <ele>69</ele>
        <time>2018-11-08T11:09:13 01:00</time>
      </trkpt>
      <trkpt lat="48.88243" lon="2.11028">
        <ele>70</ele>
        <time>2018-11-08T11:09:22 01:00</time>
      </trkpt>
      <trkpt lat="48.88246" lon="2.11042">
        <ele>71</ele>
        <time>2018-11-08T11:09:31 01:00</time>
      </trkpt>
      <trkpt lat="48.88245" lon="2.11056">
        <ele>70</ele>
        <time>2018-11-08T11:09:41 01:00</time>
      </trkpt>
      <trkpt lat="48.88236" lon="2.11061">
        <ele>71</ele>
        <time>2018-11-08T11:09:51 01:00</time>
      </trkpt>
      <trkpt lat="48.88227" lon="2.11062">
        <ele>71</ele>
        <time>2018-11-08T11:10:04 01:00</time>
      </trkpt>
      <trkpt lat="48.88218" lon="2.11065">
        <ele>69</ele>
        <time>2018-11-08T11:10:25 01:00</time>
      </trkpt>
      <trkpt lat="48.88209" lon="2.11067">
        <ele>68</ele>
        <time>2018-11-08T11:11:02 01:00</time>
      </trkpt>
      <trkpt lat="48.882" lon="2.11068">
        <ele>67</ele>
        <time>2018-11-08T11:11:11 01:00</time>
      </trkpt>
      <trkpt lat="48.88191" lon="2.11072">
        <ele>66</ele>
        <time>2018-11-08T11:11:20 01:00</time>
      </trkpt>
      <trkpt lat="48.88181" lon="2.11073">
        <ele>66</ele>
        <time>2018-11-08T11:11:31 01:00</time>
      </trkpt>
      <trkpt lat="48.88172" lon="2.11075">
        <ele>67</ele>
        <time>2018-11-08T11:11:41 01:00</time>
      </trkpt>
      <trkpt lat="48.88163" lon="2.11079">
        <ele>68</ele>
        <time>2018-11-08T11:11:51 01:00</time>
      </trkpt>
      <trkpt lat="48.88153" lon="2.11078">
        <ele>68</ele>
        <time>2018-11-08T11:12:20 01:00</time>
      </trkpt>
      <trkpt lat="48.88143" lon="2.11083">
        <ele>67</ele>
        <time>2018-11-08T11:12:28 01:00</time>
      </trkpt>
      <trkpt lat="48.88134" lon="2.11084">
        <ele>66</ele>
        <time>2018-11-08T11:12:36 01:00</time>
      </trkpt>
      <trkpt lat="48.88125" lon="2.1109">
        <ele>69</ele>
        <time>2018-11-08T11:12:46 01:00</time>
      </trkpt>
      <trkpt lat="48.88116" lon="2.11096">
        <ele>67</ele>
        <time>2018-11-08T11:12:54 01:00</time>
      </trkpt>
      <trkpt lat="48.88108" lon="2.11105">
        <ele>68</ele>
        <time>2018-11-08T11:13:03 01:00</time>
      </trkpt>
      <trkpt lat="48.88101" lon="2.11114">
        <ele>66</ele>
        <time>2018-11-08T11:13:12 01:00</time>
      </trkpt>
      <trkpt lat="48.88093" lon="2.11121">
        <ele>69</ele>
        <time>2018-11-08T11:14:15 01:00</time>
      </trkpt>
      <trkpt lat="48.88087" lon="2.11132">
        <ele>66</ele>
        <time>2018-11-08T11:14:25 01:00</time>
      </trkpt>
      <trkpt lat="48.88078" lon="2.11138">
        <ele>64</ele>
        <time>2018-11-08T11:14:36 01:00</time>
      </trkpt>
      <trkpt lat="48.8807" lon="2.11147">
        <ele>65</ele>
        <time>2018-11-08T11:14:47 01:00</time>
      </trkpt>
      <trkpt lat="48.88062" lon="2.11154">
        <ele>64</ele>
        <time>2018-11-08T11:15:01 01:00</time>
      </trkpt>
      <trkpt lat="48.88053" lon="2.1116">
        <ele>65</ele>
        <time>2018-11-08T11:15:10 01:00</time>
      </trkpt>
      <trkpt lat="48.88047" lon="2.11171">
        <ele>68</ele>
        <time>2018-11-08T11:15:17 01:00</time>
      </trkpt>
      <trkpt lat="48.88039" lon="2.11179">
        <ele>70</ele>
        <time>2018-11-08T11:15:26 01:00</time>
      </trkpt>
      <trkpt lat="48.8803" lon="2.11184">
        <ele>69</ele>
        <time>2018-11-08T11:15:35 01:00</time>
      </trkpt>
      <trkpt lat="48.88023" lon="2.11193">
        <ele>68</ele>
        <time>2018-11-08T11:15:44 01:00</time>
      </trkpt>
      <trkpt lat="48.88014" lon="2.11199">
        <ele>66</ele>
        <time>2018-11-08T11:15:54 01:00</time>
      </trkpt>
      <trkpt lat="48.88004" lon="2.11204">
        <ele>66</ele>
        <time>2018-11-08T11:16:03 01:00</time>
      </trkpt>
      <trkpt lat="48.87997" lon="2.11213">
        <ele>68</ele>
        <time>2018-11-08T11:16:10 01:00</time>
      </trkpt>
      <trkpt lat="48.87991" lon="2.11224">
        <ele>72</ele>
        <time>2018-11-08T11:16:18 01:00</time>
      </trkpt>
      <trkpt lat="48.87989" lon="2.11237">
        <ele>77</ele>
        <time>2018-11-08T11:16:26 01:00</time>
      </trkpt>
      <trkpt lat="48.87984" lon="2.11249">
        <ele>72</ele>
        <time>2018-11-08T11:16:37 01:00</time>
      </trkpt>
      <trkpt lat="48.87975" lon="2.11252">
        <ele>69</ele>
        <time>2018-11-08T11:16:47 01:00</time>
      </trkpt>
      <trkpt lat="48.87966" lon="2.11257">
        <ele>67</ele>
        <time>2018-11-08T11:16:57 01:00</time>
      </trkpt>
      <trkpt lat="48.87958" lon="2.11266">
        <ele>67</ele>
        <time>2018-11-08T11:17:06 01:00</time>
      </trkpt>
      <trkpt lat="48.87952" lon="2.11277">
        <ele>66</ele>
        <time>2018-11-08T11:17:14 01:00</time>
      </trkpt>
      <trkpt lat="48.87946" lon="2.11289">
        <ele>65</ele>
        <time>2018-11-08T11:17:26 01:00</time>
      </trkpt>
      <trkpt lat="48.87942" lon="2.11303">
        <ele>66</ele>
        <time>2018-11-08T11:17:36 01:00</time>
      </trkpt>
      <trkpt lat="48.87935" lon="2.11314">
        <ele>67</ele>
        <time>2018-11-08T11:17:44 01:00</time>
      </trkpt>
      <trkpt lat="48.87931" lon="2.11326">
        <ele>68</ele>
        <time>2018-11-08T11:17:52 01:00</time>
      </trkpt>
      <trkpt lat="48.87924" lon="2.11336">
        <ele>68</ele>
        <time>2018-11-08T11:18:00 01:00</time>
      </trkpt>
      <trkpt lat="48.87917" lon="2.11346">
        <ele>65</ele>
        <time>2018-11-08T11:18:08 01:00</time>
      </trkpt>
      <trkpt lat="48.87926" lon="2.11351">
        <ele>68</ele>
        <time>2018-11-08T11:19:12 01:00</time>
      </trkpt>
      <trkpt lat="48.87934" lon="2.1136">
        <ele>67</ele>
        <time>2018-11-08T11:19:27 01:00</time>
      </trkpt>
      <trkpt lat="48.87941" lon="2.11368">
        <ele>67</ele>
        <time>2018-11-08T11:19:36 01:00</time>
      </trkpt>
      <trkpt lat="48.87949" lon="2.11376">
        <ele>68</ele>
        <time>2018-11-08T11:19:45 01:00</time>
      </trkpt>
      <trkpt lat="48.87957" lon="2.11385">
        <ele>68</ele>
        <time>2018-11-08T11:19:53 01:00</time>
      </trkpt>
      <trkpt lat="48.87965" lon="2.11394">
        <ele>70</ele>
        <time>2018-11-08T11:19:59 01:00</time>
      </trkpt>
      <trkpt lat="48.87972" lon="2.11403">
        <ele>72</ele>
        <time>2018-11-08T11:20:07 01:00</time>
      </trkpt>
      <trkpt lat="48.87976" lon="2.11417">
        <ele>74</ele>
        <time>2018-11-08T11:20:26 01:00</time>
      </trkpt>
      <trkpt lat="48.87982" lon="2.11428">
        <ele>74</ele>
        <time>2018-11-08T11:20:44 01:00</time>
      </trkpt>
      <trkpt lat="48.87976" lon="2.11416">
        <ele>67</ele>
        <time>2018-11-08T11:21:02 01:00</time>
      </trkpt>
      <trkpt lat="48.87985" lon="2.11421">
        <ele>71</ele>
        <time>2018-11-08T11:22:54 01:00</time>
      </trkpt>
      <trkpt lat="48.87991" lon="2.11411">
        <ele>72</ele>
        <time>2018-11-08T11:23:07 01:00</time>
      </trkpt>
      <trkpt lat="48.87994" lon="2.11397">
        <ele>71</ele>
        <time>2018-11-08T11:23:20 01:00</time>
      </trkpt>
      <trkpt lat="48.87999" lon="2.11386">
        <ele>72</ele>
        <time>2018-11-08T11:23:32 01:00</time>
      </trkpt>
      <trkpt lat="48.88005" lon="2.11375">
        <ele>72</ele>
        <time>2018-11-08T11:23:43 01:00</time>
      </trkpt>
      <trkpt lat="48.88011" lon="2.11364">
        <ele>71</ele>
        <time>2018-11-08T11:23:53 01:00</time>
      </trkpt>
      <trkpt lat="48.88016" lon="2.11351">
        <ele>70</ele>
        <time>2018-11-08T11:24:04 01:00</time>
      </trkpt>
      <trkpt lat="48.88018" lon="2.11338">
        <ele>64</ele>
        <time>2018-11-08T11:24:15 01:00</time>
      </trkpt>
      <trkpt lat="48.88024" lon="2.11326">
        <ele>65</ele>
        <time>2018-11-08T11:24:26 01:00</time>
      </trkpt>
      <trkpt lat="48.88031" lon="2.11317">
        <ele>67</ele>
        <time>2018-11-08T11:24:35 01:00</time>
      </trkpt>
      <trkpt lat="48.88039" lon="2.11309">
        <ele>64</ele>
        <time>2018-11-08T11:24:43 01:00</time>
      </trkpt>
      <trkpt lat="48.88047" lon="2.11303">
        <ele>68</ele>
        <time>2018-11-08T11:28:58 01:00</time>
      </trkpt>
      <trkpt lat="48.88055" lon="2.11297">
        <ele>67</ele>
        <time>2018-11-08T11:29:11 01:00</time>
      </trkpt>
      <trkpt lat="48.88064" lon="2.11291">
        <ele>67</ele>
        <time>2018-11-08T11:29:23 01:00</time>
      </trkpt>
      <trkpt lat="48.8807" lon="2.11281">
        <ele>66</ele>
        <time>2018-11-08T11:29:35 01:00</time>
      </trkpt>
      <trkpt lat="48.88078" lon="2.11273">
        <ele>68</ele>
        <time>2018-11-08T11:29:49 01:00</time>
      </trkpt>
      <trkpt lat="48.88081" lon="2.1126">
        <ele>58</ele>
        <time>2018-11-08T11:30:24 01:00</time>
      </trkpt>
      <trkpt lat="48.88086" lon="2.11247">
        <ele>55</ele>
        <time>2018-11-08T11:30:35 01:00</time>
      </trkpt>
      <trkpt lat="48.88092" lon="2.11236">
        <ele>60</ele>
        <time>2018-11-08T11:30:46 01:00</time>
      </trkpt>
      <trkpt lat="48.88102" lon="2.11232">
        <ele>64</ele>
        <time>2018-11-08T11:30:54 01:00</time>
      </trkpt>
      <trkpt lat="48.8811" lon="2.11225">
        <ele>62</ele>
        <time>2018-11-08T11:31:00 01:00</time>
      </trkpt>
      <trkpt lat="48.88119" lon="2.11219">
        <ele>61</ele>
        <time>2018-11-08T11:31:06 01:00</time>
      </trkpt>
      <trkpt lat="48.88129" lon="2.11217">
        <ele>60</ele>
        <time>2018-11-08T11:31:12 01:00</time>
      </trkpt>
      <trkpt lat="48.88139" lon="2.11215">
        <ele>64</ele>
        <time>2018-11-08T11:31:22 01:00</time>
      </trkpt>
      <trkpt lat="48.88148" lon="2.1121">
        <ele>65</ele>
        <time>2018-11-08T11:31:32 01:00</time>
      </trkpt>
      <trkpt lat="48.88156" lon="2.11202">
        <ele>65</ele>
        <time>2018-11-08T11:31:42 01:00</time>
      </trkpt>
      <trkpt lat="48.88163" lon="2.11193">
        <ele>65</ele>
        <time>2018-11-08T11:31:52 01:00</time>
      </trkpt>
      <trkpt lat="48.88167" lon="2.11181">
        <ele>63</ele>
        <time>2018-11-08T11:32:04 01:00</time>
      </trkpt>
      <trkpt lat="48.88176" lon="2.11176">
        <ele>59</ele>
        <time>2018-11-08T11:32:23 01:00</time>
      </trkpt>
      <trkpt lat="48.88184" lon="2.11169">
        <ele>58</ele>
        <time>2018-11-08T11:32:38 01:00</time>
      </trkpt>
      <trkpt lat="48.88193" lon="2.11171">
        <ele>61</ele>
        <time>2018-11-08T11:32:48 01:00</time>
      </trkpt>
      <trkpt lat="48.88202" lon="2.11174">
        <ele>65</ele>
        <time>2018-11-08T11:33:07 01:00</time>
      </trkpt>
      <trkpt lat="48.88211" lon="2.11179">
        <ele>66</ele>
        <time>2018-11-08T11:33:28 01:00</time>
      </trkpt>
      <trkpt lat="48.88216" lon="2.11192">
        <ele>62</ele>
        <time>2018-11-08T11:33:56 01:00</time>
      </trkpt>
      <trkpt lat="48.8822" lon="2.11205">
        <ele>64</ele>
        <time>2018-11-08T11:34:08 01:00</time>
      </trkpt>
      <trkpt lat="48.88223" lon="2.11219">
        <ele>64</ele>
        <time>2018-11-08T11:34:18 01:00</time>
      </trkpt>
      <trkpt lat="48.88228" lon="2.11232">
        <ele>66</ele>
        <time>2018-11-08T11:34:27 01:00</time>
      </trkpt>
      <trkpt lat="48.88233" lon="2.11243">
        <ele>67</ele>
        <time>2018-11-08T11:34:35 01:00</time>
      </trkpt>
      <trkpt lat="48.88238" lon="2.11256">
        <ele>70</ele>
        <time>2018-11-08T11:34:46 01:00</time>
      </trkpt>
      <trkpt lat="48.88243" lon="2.11268">
        <ele>70</ele>
        <time>2018-11-08T11:34:57 01:00</time>
      </trkpt>
      <trkpt lat="48.88249" lon="2.11278">
        <ele>69</ele>
        <time>2018-11-08T11:35:06 01:00</time>
      </trkpt>
      <trkpt lat="48.88256" lon="2.11288">
        <ele>69</ele>
        <time>2018-11-08T11:35:16 01:00</time>
      </trkpt>
      <trkpt lat="48.88264" lon="2.11296">
        <ele>70</ele>
        <time>2018-11-08T11:35:25 01:00</time>
      </trkpt>
      <trkpt lat="48.88273" lon="2.11298">
        <ele>69</ele>
        <time>2018-11-08T11:35:39 01:00</time>
      </trkpt>
      <trkpt lat="48.88279" lon="2.11308">
        <ele>67</ele>
        <time>2018-11-08T11:35:49 01:00</time>
      </trkpt>
      <trkpt lat="48.88282" lon="2.11322">
        <ele>66</ele>
        <time>2018-11-08T11:36:33 01:00</time>
      </trkpt>
      <trkpt lat="48.88287" lon="2.11333">
        <ele>63</ele>
        <time>2018-11-08T11:36:48 01:00</time>
      </trkpt>
      <trkpt lat="48.88278" lon="2.11325">
        <ele>66</ele>
        <time>2018-11-08T11:37:19 01:00</time>
      </trkpt>
      <trkpt lat="48.88304" lon="2.11359">
        <ele>77</ele>
        <time>2018-11-08T11:50:13 01:00</time>
      </trkpt>
      <trkpt lat="48.88293" lon="2.1135">
        <ele>73</ele>
        <time>2018-11-08T11:50:14 01:00</time>
      </trkpt>
      <trkpt lat="48.88286" lon="2.1134">
        <ele>66</ele>
        <time>2018-11-08T11:50:28 01:00</time>
      </trkpt>
      <trkpt lat="48.88278" lon="2.11333">
        <ele>67</ele>
        <time>2018-11-08T11:50:35 01:00</time>
      </trkpt>
      <trkpt lat="48.8827" lon="2.11324">
        <ele>70</ele>
        <time>2018-11-08T11:52:41 01:00</time>
      </trkpt>
      <trkpt lat="48.88261" lon="2.11318">
        <ele>78</ele>
        <time>2018-11-08T12:19:13 01:00</time>
      </trkpt>
      <trkpt lat="48.88251" lon="2.11316">
        <ele>77</ele>
        <time>2018-11-08T12:19:19 01:00</time>
      </trkpt>
      <trkpt lat="48.88242" lon="2.11313">
        <ele>76</ele>
        <time>2018-11-08T12:19:28 01:00</time>
      </trkpt>
      <trkpt lat="48.88252" lon="2.11314">
        <ele>74</ele>
        <time>2018-11-08T12:20:06 01:00</time>
      </trkpt>
      <trkpt lat="48.88261" lon="2.11321">
        <ele>71</ele>
        <time>2018-11-08T12:20:13 01:00</time>
      </trkpt>
      <trkpt lat="48.88271" lon="2.11323">
        <ele>70</ele>
        <time>2018-11-08T12:20:20 01:00</time>
      </trkpt>
      <trkpt lat="48.8828" lon="2.11327">
        <ele>72</ele>
        <time>2018-11-08T12:26:07 01:00</time>
      </trkpt>
      <trkpt lat="48.88289" lon="2.11333">
        <ele>68</ele>
        <time>2018-11-08T12:26:16 01:00</time>
      </trkpt>
      <trkpt lat="48.88298" lon="2.11336">
        <ele>66</ele>
        <time>2018-11-08T12:26:24 01:00</time>
      </trkpt>
      <trkpt lat="48.88288" lon="2.11334">
        <ele>66</ele>
        <time>2018-11-08T12:27:05 01:00</time>
      </trkpt>
      <trkpt lat="48.88281" lon="2.11323">
        <ele>65</ele>
        <time>2018-11-08T12:27:58 01:00</time>
      </trkpt>
      <trkpt lat="48.88284" lon="2.1131">
        <ele>70</ele>
        <time>2018-11-08T12:28:31 01:00</time>
      </trkpt>
      <trkpt lat="48.88279" lon="2.11322">
        <ele>69</ele>
        <time>2018-11-08T12:29:16 01:00</time>
      </trkpt>
      <trkpt lat="48.88279" lon="2.11336">
        <ele>67</ele>
        <time>2018-11-08T12:29:32 01:00</time>
      </trkpt>
      <trkpt lat="48.88275" lon="2.11349">
        <ele>64</ele>
        <time>2018-11-08T12:29:44 01:00</time>
      </trkpt>
      <trkpt lat="48.88277" lon="2.11335">
        <ele>69</ele>
        <time>2018-11-08T12:30:07 01:00</time>
      </trkpt>
      <trkpt lat="48.88293" lon="2.11334">
        <ele>61</ele>
        <time>2018-11-08T12:30:56 01:00</time>
      </trkpt>
      <trkpt lat="48.883" lon="2.11343">
        <ele>69</ele>
        <time>2018-11-08T12:31:11 01:00</time>
      </trkpt>
      <trkpt lat="48.88306" lon="2.11353">
        <ele>69</ele>
        <time>2018-11-08T12:31:24 01:00</time>
      </trkpt>
      <trkpt lat="48.88311" lon="2.11365">
        <ele>69</ele>
        <time>2018-11-08T12:31:34 01:00</time>
      </trkpt>
      <trkpt lat="48.88314" lon="2.11378">
        <ele>72</ele>
        <time>2018-11-08T12:31:45 01:00</time>
      </trkpt>
      <trkpt lat="48.88323" lon="2.11377">
        <ele>68</ele>
        <time>2018-11-08T12:32:18 01:00</time>
      </trkpt>
      <trkpt lat="48.88332" lon="2.11382">
        <ele>68</ele>
        <time>2018-11-08T12:34:04 01:00</time>
      </trkpt>
      <trkpt lat="48.8834" lon="2.11374">
        <ele>68</ele>
        <time>2018-11-08T12:34:14 01:00</time>
      </trkpt>
      <trkpt lat="48.88348" lon="2.11366">
        <ele>67</ele>
        <time>2018-11-08T12:34:27 01:00</time>
      </trkpt>
      <trkpt lat="48.88357" lon="2.11362">
        <ele>69</ele>
        <time>2018-11-08T12:34:35 01:00</time>
      </trkpt>
      <trkpt lat="48.88366" lon="2.11359">
        <ele>69</ele>
        <time>2018-11-08T12:34:42 01:00</time>
      </trkpt>
      <trkpt lat="48.88375" lon="2.11353">
        <ele>71</ele>
        <time>2018-11-08T12:34:50 01:00</time>
      </trkpt>
      <trkpt lat="48.88382" lon="2.11343">
        <ele>67</ele>
        <time>2018-11-08T12:35:04 01:00</time>
      </trkpt>
      <trkpt lat="48.88389" lon="2.11334">
        <ele>67</ele>
        <time>2018-11-08T12:35:14 01:00</time>
      </trkpt>
      <trkpt lat="48.88397" lon="2.11325">
        <ele>70</ele>
        <time>2018-11-08T12:35:24 01:00</time>
      </trkpt>
      <trkpt lat="48.88405" lon="2.11321">
        <ele>70</ele>
        <time>2018-11-08T12:35:32 01:00</time>
      </trkpt>
      <trkpt lat="48.88413" lon="2.11313">
        <ele>70</ele>
        <time>2018-11-08T12:35:42 01:00</time>
      </trkpt>
      <trkpt lat="48.88421" lon="2.11305">
        <ele>71</ele>
        <time>2018-11-08T12:35:50 01:00</time>
      </trkpt>
      <trkpt lat="48.88429" lon="2.11298">
        <ele>68</ele>
        <time>2018-11-08T12:35:59 01:00</time>
      </trkpt>
      <trkpt lat="48.88437" lon="2.11291">
        <ele>65</ele>
        <time>2018-11-08T12:36:08 01:00</time>
      </trkpt>
      <trkpt lat="48.88445" lon="2.11281">
        <ele>70</ele>
        <time>2018-11-08T12:36:18 01:00</time>
      </trkpt>
      <trkpt lat="48.88453" lon="2.11274">
        <ele>70</ele>
        <time>2018-11-08T12:36:28 01:00</time>
      </trkpt>
      <trkpt lat="48.88461" lon="2.11264">
        <ele>71</ele>
        <time>2018-11-08T12:36:37 01:00</time>
      </trkpt>
      <trkpt lat="48.88468" lon="2.11255">
        <ele>67</ele>
        <time>2018-11-08T12:36:47 01:00</time>
      </trkpt>
      <trkpt lat="48.88477" lon="2.11249">
        <ele>68</ele>
        <time>2018-11-08T12:36:56 01:00</time>
      </trkpt>
      <trkpt lat="48.88485" lon="2.11242">
        <ele>73</ele>
        <time>2018-11-08T12:37:06 01:00</time>
      </trkpt>
      <trkpt lat="48.88493" lon="2.11233">
        <ele>71</ele>
        <time>2018-11-08T12:37:16 01:00</time>
      </trkpt>
      <trkpt lat="48.88499" lon="2.11223">
        <ele>71</ele>
        <time>2018-11-08T12:37:30 01:00</time>
      </trkpt>
      <trkpt lat="48.88491" lon="2.11231">
        <ele>72</ele>
        <time>2018-11-08T12:38:05 01:00</time>
      </trkpt>
      <trkpt lat="48.88482" lon="2.11236">
        <ele>72</ele>
        <time>2018-11-08T12:38:15 01:00</time>
      </trkpt>
      <trkpt lat="48.88475" lon="2.11245">
        <ele>71</ele>
        <time>2018-11-08T12:38:23 01:00</time>
      </trkpt>
      <trkpt lat="48.88466" lon="2.11253">
        <ele>72</ele>
        <time>2018-11-08T12:38:32 01:00</time>
      </trkpt>
      <trkpt lat="48.88458" lon="2.11259">
        <ele>71</ele>
        <time>2018-11-08T12:38:40 01:00</time>
      </trkpt>
      <trkpt lat="48.88452" lon="2.11269">
        <ele>70</ele>
        <time>2018-11-08T12:38:54 01:00</time>
      </trkpt>
      <trkpt lat="48.88444" lon="2.11277">
        <ele>71</ele>
        <time>2018-11-08T12:39:12 01:00</time>
      </trkpt>
      <trkpt lat="48.88435" lon="2.11271">
        <ele>72</ele>
        <time>2018-11-08T12:39:27 01:00</time>
      </trkpt>
      <trkpt lat="48.88429" lon="2.11261">
        <ele>76</ele>
        <time>2018-11-08T12:40:54 01:00</time>
      </trkpt>
      <trkpt lat="48.87775" lon="2.11486">
        <ele>83</ele>
        <time>2018-11-08T13:08:33 01:00</time>
      </trkpt>
      <trkpt lat="48.87782" lon="2.11476">
        <ele>76</ele>
        <time>2018-11-08T13:09:20 01:00</time>
      </trkpt>
      <trkpt lat="48.87788" lon="2.11463">
        <ele>78</ele>
        <time>2018-11-08T13:09:27 01:00</time>
      </trkpt>
      <trkpt lat="48.87786" lon="2.11449">
        <ele>76</ele>
        <time>2018-11-08T13:09:44 01:00</time>
      </trkpt>
      <trkpt lat="48.87791" lon="2.11437">
        <ele>79</ele>
        <time>2018-11-08T13:09:53 01:00</time>
      </trkpt>
      <trkpt lat="48.87785" lon="2.11426">
        <ele>80</ele>
        <time>2018-11-08T13:10:03 01:00</time>
      </trkpt>
      <trkpt lat="48.87778" lon="2.11417">
        <ele>80</ele>
        <time>2018-11-08T13:10:14 01:00</time>
      </trkpt>
      <trkpt lat="48.87772" lon="2.11407">
        <ele>78</ele>
        <time>2018-11-08T13:10:26 01:00</time>
      </trkpt>
      <trkpt lat="48.87765" lon="2.11396">
        <ele>81</ele>
        <time>2018-11-08T13:10:36 01:00</time>
      </trkpt>
      <trkpt lat="48.87759" lon="2.11385">
        <ele>80</ele>
        <time>2018-11-08T13:10:46 01:00</time>
      </trkpt>
      <trkpt lat="48.87752" lon="2.11376">
        <ele>78</ele>
        <time>2018-11-08T13:10:57 01:00</time>
      </trkpt>
      <trkpt lat="48.87745" lon="2.11367">
        <ele>76</ele>
        <time>2018-11-08T13:11:10 01:00</time>
      </trkpt>
      <trkpt lat="48.87738" lon="2.11358">
        <ele>74</ele>
        <time>2018-11-08T13:11:19 01:00</time>
      </trkpt>
      <trkpt lat="48.87731" lon="2.11349">
        <ele>74</ele>
        <time>2018-11-08T13:11:30 01:00</time>
      </trkpt>
      <trkpt lat="48.87725" lon="2.11338">
        <ele>76</ele>
        <time>2018-11-08T13:11:40 01:00</time>
      </trkpt>
      <trkpt lat="48.87721" lon="2.11324">
        <ele>76</ele>
        <time>2018-11-08T13:11:52 01:00</time>
      </trkpt>
      <trkpt lat="48.8772" lon="2.1131">
        <ele>78</ele>
        <time>2018-11-08T13:12:02 01:00</time>
      </trkpt>
      <trkpt lat="48.87722" lon="2.11296">
        <ele>78</ele>
        <time>2018-11-08T13:12:11 01:00</time>
      </trkpt>
      <trkpt lat="48.87726" lon="2.11283">
        <ele>79</ele>
        <time>2018-11-08T13:12:21 01:00</time>
      </trkpt>
      <trkpt lat="48.87733" lon="2.11274">
        <ele>81</ele>
        <time>2018-11-08T13:12:32 01:00</time>
      </trkpt>
      <trkpt lat="48.87739" lon="2.11264">
        <ele>83</ele>
        <time>2018-11-08T13:12:41 01:00</time>
      </trkpt>
      <trkpt lat="48.87745" lon="2.11252">
        <ele>87</ele>
        <time>2018-11-08T13:12:50 01:00</time>
      </trkpt>
      <trkpt lat="48.87751" lon="2.11242">
        <ele>89</ele>
        <time>2018-11-08T13:13:01 01:00</time>
      </trkpt>
      <trkpt lat="48.87758" lon="2.11232">
        <ele>93</ele>
        <time>2018-11-08T13:13:12 01:00</time>
      </trkpt>
      <trkpt lat="48.87763" lon="2.1122">
        <ele>95</ele>
        <time>2018-11-08T13:13:21 01:00</time>
      </trkpt>
      <trkpt lat="48.87769" lon="2.1121">
        <ele>96</ele>
        <time>2018-11-08T13:13:30 01:00</time>
      </trkpt>
      <trkpt lat="48.87776" lon="2.11199">
        <ele>96</ele>
        <time>2018-11-08T13:13:40 01:00</time>
      </trkpt>
      <trkpt lat="48.87782" lon="2.11188">
        <ele>95</ele>
        <time>2018-11-08T13:13:50 01:00</time>
      </trkpt>
      <trkpt lat="48.87776" lon="2.11176">
        <ele>88</ele>
        <time>2018-11-08T13:14:09 01:00</time>
      </trkpt>
      <trkpt lat="48.87766" lon="2.1118">
        <ele>84</ele>
        <time>2018-11-08T13:14:18 01:00</time>
      </trkpt>
      <trkpt lat="48.87757" lon="2.11183">
        <ele>84</ele>
        <time>2018-11-08T13:14:28 01:00</time>
      </trkpt>
      <trkpt lat="48.87748" lon="2.11189">
        <ele>84</ele>
        <time>2018-11-08T13:14:38 01:00</time>
      </trkpt>
      <trkpt lat="48.8774" lon="2.11197">
        <ele>87</ele>
        <time>2018-11-08T13:14:49 01:00</time>
      </trkpt>
      <trkpt lat="48.87732" lon="2.11206">
        <ele>88</ele>
        <time>2018-11-08T13:14:59 01:00</time>
      </trkpt>
      <trkpt lat="48.87726" lon="2.11217">
        <ele>89</ele>
        <time>2018-11-08T13:15:09 01:00</time>
      </trkpt>
      <trkpt lat="48.87719" lon="2.11225">
        <ele>89</ele>
        <time>2018-11-08T13:15:19 01:00</time>
      </trkpt>
      <trkpt lat="48.87711" lon="2.11233">
        <ele>90</ele>
        <time>2018-11-08T13:15:31 01:00</time>
      </trkpt>
      <trkpt lat="48.87703" lon="2.11242">
        <ele>92</ele>
        <time>2018-11-08T13:15:42 01:00</time>
      </trkpt>
      <trkpt lat="48.87695" lon="2.11251">
        <ele>91</ele>
        <time>2018-11-08T13:15:54 01:00</time>
      </trkpt>
      <trkpt lat="48.87687" lon="2.11257">
        <ele>95</ele>
        <time>2018-11-08T13:16:05 01:00</time>
      </trkpt>
      <trkpt lat="48.87679" lon="2.11262">
        <ele>95</ele>
        <time>2018-11-08T13:16:16 01:00</time>
      </trkpt>
      <trkpt lat="48.87672" lon="2.11272">
        <ele>95</ele>
        <time>2018-11-08T13:16:28 01:00</time>
      </trkpt>
      <trkpt lat="48.87664" lon="2.11281">
        <ele>96</ele>
        <time>2018-11-08T13:16:41 01:00</time>
      </trkpt>
      <trkpt lat="48.87658" lon="2.11291">
        <ele>97</ele>
        <time>2018-11-08T13:16:52 01:00</time>
      </trkpt>
      <trkpt lat="48.87649" lon="2.11297">
        <ele>96</ele>
        <time>2018-11-08T13:17:05 01:00</time>
      </trkpt>
      <trkpt lat="48.87639" lon="2.11297">
        <ele>92</ele>
        <time>2018-11-08T13:17:19 01:00</time>
      </trkpt>
      <trkpt lat="48.87633" lon="2.11286">
        <ele>99</ele>
        <time>2018-11-08T13:17:30 01:00</time>
      </trkpt>
      <trkpt lat="48.87633" lon="2.11271">
        <ele>100</ele>
        <time>2018-11-08T13:18:11 01:00</time>
      </trkpt>
      <trkpt lat="48.87637" lon="2.11258">
        <ele>101</ele>
        <time>2018-11-08T13:18:20 01:00</time>
      </trkpt>
      <trkpt lat="48.87642" lon="2.11245">
        <ele>101</ele>
        <time>2018-11-08T13:18:31 01:00</time>
      </trkpt>
      <trkpt lat="48.87649" lon="2.11235">
        <ele>101</ele>
        <time>2018-11-08T13:18:44 01:00</time>
      </trkpt>
      <trkpt lat="48.87658" lon="2.11229">
        <ele>103</ele>
        <time>2018-11-08T13:18:54 01:00</time>
      </trkpt>
      <trkpt lat="48.87663" lon="2.11216">
        <ele>104</ele>
        <time>2018-11-08T13:19:04 01:00</time>
      </trkpt>
      <trkpt lat="48.8767" lon="2.11205">
        <ele>105</ele>
        <time>2018-11-08T13:19:15 01:00</time>
      </trkpt>
      <trkpt lat="48.87675" lon="2.11193">
        <ele>104</ele>
        <time>2018-11-08T13:19:25 01:00</time>
      </trkpt>
      <trkpt lat="48.8768" lon="2.11181">
        <ele>103</ele>
        <time>2018-11-08T13:19:40 01:00</time>
      </trkpt>
      <trkpt lat="48.87684" lon="2.11169">
        <ele>102</ele>
        <time>2018-11-08T13:19:53 01:00</time>
      </trkpt>
      <trkpt lat="48.87689" lon="2.11157">
        <ele>99</ele>
        <time>2018-11-08T13:20:06 01:00</time>
      </trkpt>
      <trkpt lat="48.87693" lon="2.11145">
        <ele>99</ele>
        <time>2018-11-08T13:20:15 01:00</time>
      </trkpt>
      <trkpt lat="48.87699" lon="2.11133">
        <ele>101</ele>
        <time>2018-11-08T13:20:25 01:00</time>
      </trkpt>
      <trkpt lat="48.87705" lon="2.11121">
        <ele>104</ele>
        <time>2018-11-08T13:20:36 01:00</time>
      </trkpt>
      <trkpt lat="48.8771" lon="2.11109">
        <ele>102</ele>
        <time>2018-11-08T13:20:46 01:00</time>
      </trkpt>
      <trkpt lat="48.87718" lon="2.11099">
        <ele>101</ele>
        <time>2018-11-08T13:20:54 01:00</time>
      </trkpt>
      <trkpt lat="48.87725" lon="2.11091">
        <ele>103</ele>
        <time>2018-11-08T13:21:03 01:00</time>
      </trkpt>
      <trkpt lat="48.87734" lon="2.11085">
        <ele>107</ele>
        <time>2018-11-08T13:21:10 01:00</time>
      </trkpt>
      <trkpt lat="48.87743" lon="2.11077">
        <ele>105</ele>
        <time>2018-11-08T13:21:20 01:00</time>
      </trkpt>
      <trkpt lat="48.87748" lon="2.11066">
        <ele>104</ele>
        <time>2018-11-08T13:21:31 01:00</time>
      </trkpt>
      <trkpt lat="48.87753" lon="2.11054">
        <ele>105</ele>
        <time>2018-11-08T13:21:45 01:00</time>
      </trkpt>
      <trkpt lat="48.87761" lon="2.11046">
        <ele>101</ele>
        <time>2018-11-08T13:21:55 01:00</time>
      </trkpt>
      <trkpt lat="48.87768" lon="2.11037">
        <ele>105</ele>
        <time>2018-11-08T13:22:06 01:00</time>
      </trkpt>
      <trkpt lat="48.87775" lon="2.11026">
        <ele>104</ele>
        <time>2018-11-08T13:22:16 01:00</time>
      </trkpt>
      <trkpt lat="48.87782" lon="2.1102">
        <ele>105</ele>
        <time>2018-11-08T13:22:59 01:00</time>
      </trkpt>
      <trkpt lat="48.8778" lon="2.11006">
        <ele>106</ele>
        <time>2018-11-08T13:23:08 01:00</time>
      </trkpt>
      <trkpt lat="48.87775" lon="2.10993">
        <ele>106</ele>
        <time>2018-11-08T13:23:17 01:00</time>
      </trkpt>
      <trkpt lat="48.87773" lon="2.10979">
        <ele>107</ele>
        <time>2018-11-08T13:23:24 01:00</time>
      </trkpt>
      <trkpt lat="48.8777" lon="2.10965">
        <ele>108</ele>
        <time>2018-11-08T13:23:32 01:00</time>
      </trkpt>
      <trkpt lat="48.87765" lon="2.10954">
        <ele>107</ele>
        <time>2018-11-08T13:23:58 01:00</time>
      </trkpt>
      <trkpt lat="48.87759" lon="2.10943">
        <ele>107</ele>
        <time>2018-11-08T13:24:10 01:00</time>
      </trkpt>
      <trkpt lat="48.87753" lon="2.10931">
        <ele>106</ele>
        <time>2018-11-08T13:24:24 01:00</time>
      </trkpt>
      <trkpt lat="48.87747" lon="2.1092">
        <ele>107</ele>
        <time>2018-11-08T13:24:35 01:00</time>
      </trkpt>
      <trkpt lat="48.87742" lon="2.10909">
        <ele>107</ele>
        <time>2018-11-08T13:24:46 01:00</time>
      </trkpt>
      <trkpt lat="48.87738" lon="2.10895">
        <ele>106</ele>
        <time>2018-11-08T13:25:03 01:00</time>
      </trkpt>
      <trkpt lat="48.87733" lon="2.10883">
        <ele>106</ele>
        <time>2018-11-08T13:25:26 01:00</time>
      </trkpt>
      <trkpt lat="48.87728" lon="2.1087">
        <ele>102</ele>
        <time>2018-11-08T13:25:40 01:00</time>
      </trkpt>
      <trkpt lat="48.87724" lon="2.10857">
        <ele>103</ele>
        <time>2018-11-08T13:25:50 01:00</time>
      </trkpt>
      <trkpt lat="48.8772" lon="2.10845">
        <ele>101</ele>
        <time>2018-11-08T13:26:01 01:00</time>
      </trkpt>
      <trkpt lat="48.87713" lon="2.10834">
        <ele>98</ele>
        <time>2018-11-08T13:26:18 01:00</time>
      </trkpt>
      <trkpt lat="48.87709" lon="2.10821">
        <ele>99</ele>
        <time>2018-11-08T13:26:29 01:00</time>
      </trkpt>
      <trkpt lat="48.87708" lon="2.10807">
        <ele>99</ele>
        <time>2018-11-08T13:26:43 01:00</time>
      </trkpt>
      <trkpt lat="48.87708" lon="2.10793">
        <ele>101</ele>
        <time>2018-11-08T13:26:57 01:00</time>
      </trkpt>
      <trkpt lat="48.87707" lon="2.10779">
        <ele>100</ele>
        <time>2018-11-08T13:27:03 01:00</time>
      </trkpt>
      <trkpt lat="48.87704" lon="2.10764">
        <ele>96</ele>
        <time>2018-11-08T13:27:11 01:00</time>
      </trkpt>
      <trkpt lat="48.87696" lon="2.10758">
        <ele>88</ele>
        <time>2018-11-08T13:27:42 01:00</time>
      </trkpt>
      <trkpt lat="48.87693" lon="2.10744">
        <ele>92</ele>
        <time>2018-11-08T13:27:49 01:00</time>
      </trkpt>
      <trkpt lat="48.87694" lon="2.10728">
        <ele>95</ele>
        <time>2018-11-08T13:27:53 01:00</time>
      </trkpt>
      <trkpt lat="48.87698" lon="2.10716">
        <ele>96</ele>
        <time>2018-11-08T13:27:58 01:00</time>
      </trkpt>
      <trkpt lat="48.87699" lon="2.10702">
        <ele>98</ele>
        <time>2018-11-08T13:28:04 01:00</time>
      </trkpt>
      <trkpt lat="48.87705" lon="2.1069">
        <ele>100</ele>
        <time>2018-11-08T13:28:14 01:00</time>
      </trkpt>
      <trkpt lat="48.8771" lon="2.10678">
        <ele>101</ele>
        <time>2018-11-08T13:28:25 01:00</time>
      </trkpt>
      <trkpt lat="48.87717" lon="2.10668">
        <ele>101</ele>
        <time>2018-11-08T13:28:34 01:00</time>
      </trkpt>
      <trkpt lat="48.87726" lon="2.10661">
        <ele>102</ele>
        <time>2018-11-08T13:28:43 01:00</time>
      </trkpt>
      <trkpt lat="48.8773" lon="2.10649">
        <ele>95</ele>
        <time>2018-11-08T13:28:57 01:00</time>
      </trkpt>
      <trkpt lat="48.87734" lon="2.10637">
        <ele>95</ele>
        <time>2018-11-08T13:29:07 01:00</time>
      </trkpt>
      <trkpt lat="48.87729" lon="2.10624">
        <ele>92</ele>
        <time>2018-11-08T13:29:13 01:00</time>
      </trkpt>
      <trkpt lat="48.87723" lon="2.10614">
        <ele>89</ele>
        <time>2018-11-08T13:29:19 01:00</time>
      </trkpt>
      <trkpt lat="48.87714" lon="2.10607">
        <ele>92</ele>
        <time>2018-11-08T13:29:26 01:00</time>
      </trkpt>
      <trkpt lat="48.87706" lon="2.106">
        <ele>90</ele>
        <time>2018-11-08T13:29:39 01:00</time>
      </trkpt>
      <trkpt lat="48.87703" lon="2.10585">
        <ele>93</ele>
        <time>2018-11-08T13:29:53 01:00</time>
      </trkpt>
      <trkpt lat="48.87694" lon="2.10576">
        <ele>93</ele>
        <time>2018-11-08T13:30:02 01:00</time>
      </trkpt>
      <trkpt lat="48.87685" lon="2.10576">
        <ele>95</ele>
        <time>2018-11-08T13:30:12 01:00</time>
      </trkpt>
      <trkpt lat="48.8768" lon="2.10564">
        <ele>98</ele>
        <time>2018-11-08T13:30:26 01:00</time>
      </trkpt>
      <trkpt lat="48.87674" lon="2.10554">
        <ele>97</ele>
        <time>2018-11-08T13:30:38 01:00</time>
      </trkpt>
      <trkpt lat="48.87668" lon="2.10543">
        <ele>98</ele>
        <time>2018-11-08T13:30:52 01:00</time>
      </trkpt>
      <trkpt lat="48.87662" lon="2.10533">
        <ele>97</ele>
        <time>2018-11-08T13:31:03 01:00</time>
      </trkpt>
      <trkpt lat="48.87657" lon="2.10521">
        <ele>99</ele>
        <time>2018-11-08T13:31:15 01:00</time>
      </trkpt>
      <trkpt lat="48.87651" lon="2.1051">
        <ele>96</ele>
        <time>2018-11-08T13:31:25 01:00</time>
      </trkpt>
      <trkpt lat="48.87645" lon="2.10499">
        <ele>95</ele>
        <time>2018-11-08T13:31:34 01:00</time>
      </trkpt>
      <trkpt lat="48.87637" lon="2.10491">
        <ele>98</ele>
        <time>2018-11-08T13:32:01 01:00</time>
      </trkpt>
      <trkpt lat="48.8763" lon="2.10482">
        <ele>98</ele>
        <time>2018-11-08T13:32:10 01:00</time>
      </trkpt>
      <trkpt lat="48.87623" lon="2.10473">
        <ele>93</ele>
        <time>2018-11-08T13:32:22 01:00</time>
      </trkpt>
      <trkpt lat="48.87617" lon="2.1046">
        <ele>93</ele>
        <time>2018-11-08T13:32:35 01:00</time>
      </trkpt>
      <trkpt lat="48.87611" lon="2.10449">
        <ele>96</ele>
        <time>2018-11-08T13:32:43 01:00</time>
      </trkpt>
      <trkpt lat="48.87606" lon="2.10437">
        <ele>100</ele>
        <time>2018-11-08T13:32:52 01:00</time>
      </trkpt>
      <trkpt lat="48.87598" lon="2.10431">
        <ele>97</ele>
        <time>2018-11-08T13:33:11 01:00</time>
      </trkpt>
      <trkpt lat="48.87592" lon="2.10422">
        <ele>99</ele>
        <time>2018-11-08T13:33:21 01:00</time>
      </trkpt>
      <trkpt lat="48.87586" lon="2.10411">
        <ele>99</ele>
        <time>2018-11-08T13:33:32 01:00</time>
      </trkpt>
      <trkpt lat="48.87582" lon="2.10398">
        <ele>102</ele>
        <time>2018-11-08T13:33:42 01:00</time>
      </trkpt>
      <trkpt lat="48.87575" lon="2.10387">
        <ele>104</ele>
        <time>2018-11-08T13:33:55 01:00</time>
      </trkpt>
      <trkpt lat="48.87568" lon="2.10377">
        <ele>102</ele>
        <time>2018-11-08T13:34:08 01:00</time>
      </trkpt>
      <trkpt lat="48.87563" lon="2.10365">
        <ele>101</ele>
        <time>2018-11-08T13:34:21 01:00</time>
      </trkpt>
      <trkpt lat="48.87558" lon="2.10354">
        <ele>101</ele>
        <time>2018-11-08T13:34:35 01:00</time>
      </trkpt>
      <trkpt lat="48.87552" lon="2.10342">
        <ele>102</ele>
        <time>2018-11-08T13:34:45 01:00</time>
      </trkpt>
      <trkpt lat="48.87546" lon="2.10332">
        <ele>103</ele>
        <time>2018-11-08T13:34:57 01:00</time>
      </trkpt>
      <trkpt lat="48.87539" lon="2.10322">
        <ele>104</ele>
        <time>2018-11-08T13:35:09 01:00</time>
      </trkpt>
      <trkpt lat="48.87532" lon="2.10311">
        <ele>104</ele>
        <time>2018-11-08T13:35:20 01:00</time>
      </trkpt>
      <trkpt lat="48.87524" lon="2.10306">
        <ele>106</ele>
        <time>2018-11-08T13:35:39 01:00</time>
      </trkpt>
      <trkpt lat="48.87517" lon="2.10298">
        <ele>103</ele>
        <time>2018-11-08T13:35:52 01:00</time>
      </trkpt>
      <trkpt lat="48.8751" lon="2.10287">
        <ele>106</ele>
        <time>2018-11-08T13:36:00 01:00</time>
      </trkpt>
      <trkpt lat="48.87503" lon="2.10277">
        <ele>106</ele>
        <time>2018-11-08T13:36:11 01:00</time>
      </trkpt>
      <trkpt lat="48.87496" lon="2.10268">
        <ele>105</ele>
        <time>2018-11-08T13:36:21 01:00</time>
      </trkpt>
      <trkpt lat="48.87491" lon="2.10256">
        <ele>109</ele>
        <time>2018-11-08T13:36:34 01:00</time>
      </trkpt>
      <trkpt lat="48.87484" lon="2.10248">
        <ele>111</ele>
        <time>2018-11-08T13:36:44 01:00</time>
      </trkpt>
      <trkpt lat="48.87477" lon="2.10239">
        <ele>110</ele>
        <time>2018-11-08T13:36:55 01:00</time>
      </trkpt>
      <trkpt lat="48.87468" lon="2.10235">
        <ele>111</ele>
        <time>2018-11-08T13:37:08 01:00</time>
      </trkpt>
      <trkpt lat="48.87463" lon="2.10224">
        <ele>112</ele>
        <time>2018-11-08T13:37:19 01:00</time>
      </trkpt>
      <trkpt lat="48.87454" lon="2.10217">
        <ele>118</ele>
        <time>2018-11-08T13:37:32 01:00</time>
      </trkpt>
      <trkpt lat="48.87445" lon="2.10212">
        <ele>117</ele>
        <time>2018-11-08T13:37:46 01:00</time>
      </trkpt>
      <trkpt lat="48.87437" lon="2.10206">
        <ele>117</ele>
        <time>2018-11-08T13:37:56 01:00</time>
      </trkpt>
      <trkpt lat="48.87428" lon="2.10202">
        <ele>116</ele>
        <time>2018-11-08T13:38:07 01:00</time>
      </trkpt>
      <trkpt lat="48.87419" lon="2.102">
        <ele>117</ele>
        <time>2018-11-08T13:38:18 01:00</time>
      </trkpt>
      <trkpt lat="48.8741" lon="2.10196">
        <ele>117</ele>
        <time>2018-11-08T13:38:28 01:00</time>
      </trkpt>
      <trkpt lat="48.87401" lon="2.10194">
        <ele>117</ele>
        <time>2018-11-08T13:38:37 01:00</time>
      </trkpt>
      <trkpt lat="48.87391" lon="2.10191">
        <ele>121</ele>
        <time>2018-11-08T13:38:47 01:00</time>
      </trkpt>
      <trkpt lat="48.87382" lon="2.10189">
        <ele>121</ele>
        <time>2018-11-08T13:38:56 01:00</time>
      </trkpt>
      <trkpt lat="48.87373" lon="2.10186">
        <ele>123</ele>
        <time>2018-11-08T13:39:05 01:00</time>
      </trkpt>
      <trkpt lat="48.87363" lon="2.10184">
        <ele>123</ele>
        <time>2018-11-08T13:39:15 01:00</time>
      </trkpt>
      <trkpt lat="48.87354" lon="2.10186">
        <ele>124</ele>
        <time>2018-11-08T13:39:25 01:00</time>
      </trkpt>
      <trkpt lat="48.87344" lon="2.10189">
        <ele>124</ele>
        <time>2018-11-08T13:39:37 01:00</time>
      </trkpt>
      <trkpt lat="48.87335" lon="2.10193">
        <ele>123</ele>
        <time>2018-11-08T13:39:47 01:00</time>
      </trkpt>
      <trkpt lat="48.87326" lon="2.10198">
        <ele>124</ele>
        <time>2018-11-08T13:39:56 01:00</time>
      </trkpt>
      <trkpt lat="48.87317" lon="2.10203">
        <ele>123</ele>
        <time>2018-11-08T13:40:04 01:00</time>
      </trkpt>
      <trkpt lat="48.87308" lon="2.10206">
        <ele>124</ele>
        <time>2018-11-08T13:40:13 01:00</time>
      </trkpt>
      <trkpt lat="48.87299" lon="2.10211">
        <ele>122</ele>
        <time>2018-11-08T13:40:21 01:00</time>
      </trkpt>
      <trkpt lat="48.8729" lon="2.10213">
        <ele>121</ele>
        <time>2018-11-08T13:40:30 01:00</time>
      </trkpt>
      <trkpt lat="48.87282" lon="2.1022">
        <ele>120</ele>
        <time>2018-11-08T13:40:38 01:00</time>
      </trkpt>
      <trkpt lat="48.87275" lon="2.10229">
        <ele>121</ele>
        <time>2018-11-08T13:40:50 01:00</time>
      </trkpt>
      <trkpt lat="48.87266" lon="2.10234">
        <ele>122</ele>
        <time>2018-11-08T13:41:00 01:00</time>
      </trkpt>
      <trkpt lat="48.8726" lon="2.10222">
        <ele>121</ele>
        <time>2018-11-08T13:42:04 01:00</time>
      </trkpt>
      <trkpt lat="48.87256" lon="2.10208">
        <ele>122</ele>
        <time>2018-11-08T13:42:15 01:00</time>
      </trkpt>
      <trkpt lat="48.87246" lon="2.10206">
        <ele>121</ele>
        <time>2018-11-08T13:42:25 01:00</time>
      </trkpt>
      <trkpt lat="48.87256" lon="2.10203">
        <ele>120</ele>
        <time>2018-11-08T13:42:51 01:00</time>
      </trkpt>
      <trkpt lat="48.87264" lon="2.10195">
        <ele>120</ele>
        <time>2018-11-08T13:42:58 01:00</time>
      </trkpt>
      <trkpt lat="48.87262" lon="2.10181">
        <ele>121</ele>
        <time>2018-11-08T13:43:51 01:00</time>
      </trkpt>
      <trkpt lat="48.87263" lon="2.10167">
        <ele>123</ele>
        <time>2018-11-08T13:44:03 01:00</time>
      </trkpt>
      <trkpt lat="48.87266" lon="2.10154">
        <ele>126</ele>
        <time>2018-11-08T13:44:13 01:00</time>
      </trkpt>
      <trkpt lat="48.87268" lon="2.10141">
        <ele>122</ele>
        <time>2018-11-08T13:44:23 01:00</time>
      </trkpt>
      <trkpt lat="48.87269" lon="2.10126">
        <ele>123</ele>
        <time>2018-11-08T13:44:36 01:00</time>
      </trkpt>
      <trkpt lat="48.8727" lon="2.10113">
        <ele>126</ele>
        <time>2018-11-08T13:44:49 01:00</time>
      </trkpt>
      <trkpt lat="48.87273" lon="2.10099">
        <ele>127</ele>
        <time>2018-11-08T13:45:03 01:00</time>
      </trkpt>
      <trkpt lat="48.87274" lon="2.10085">
        <ele>131</ele>
        <time>2018-11-08T13:45:16 01:00</time>
      </trkpt>
      <trkpt lat="48.87273" lon="2.10071">
        <ele>132</ele>
        <time>2018-11-08T13:45:22 01:00</time>
      </trkpt>
      <trkpt lat="48.87281" lon="2.10063">
        <ele>134</ele>
        <time>2018-11-08T13:45:31 01:00</time>
      </trkpt>
      <trkpt lat="48.87289" lon="2.10068">
        <ele>130</ele>
        <time>2018-11-08T13:45:43 01:00</time>
      </trkpt>
      <trkpt lat="48.87299" lon="2.10067">
        <ele>131</ele>
        <time>2018-11-08T13:45:55 01:00</time>
      </trkpt>
      <trkpt lat="48.87309" lon="2.10068">
        <ele>131</ele>
        <time>2018-11-08T13:46:05 01:00</time>
      </trkpt>
      <trkpt lat="48.87318" lon="2.10066">
        <ele>134</ele>
        <time>2018-11-08T13:46:14 01:00</time>
      </trkpt>
      <trkpt lat="48.87326" lon="2.10058">
        <ele>135</ele>
        <time>2018-11-08T13:46:22 01:00</time>
      </trkpt>
      <trkpt lat="48.87332" lon="2.10048">
        <ele>137</ele>
        <time>2018-11-08T13:46:30 01:00</time>
      </trkpt>
      <trkpt lat="48.87336" lon="2.10035">
        <ele>139</ele>
        <time>2018-11-08T13:46:51 01:00</time>
      </trkpt>
      <trkpt lat="48.87343" lon="2.10026">
        <ele>139</ele>
        <time>2018-11-08T13:47:03 01:00</time>
      </trkpt>
      <trkpt lat="48.8735" lon="2.10015">
        <ele>139</ele>
        <time>2018-11-08T13:47:13 01:00</time>
      </trkpt>
      <trkpt lat="48.8735" lon="2.10001">
        <ele>138</ele>
        <time>2018-11-08T13:48:01 01:00</time>
      </trkpt>
      <trkpt lat="48.87358" lon="2.09995">
        <ele>140</ele>
        <time>2018-11-08T13:48:10 01:00</time>
      </trkpt>
      <trkpt lat="48.87361" lon="2.09982">
        <ele>137</ele>
        <time>2018-11-08T13:48:26 01:00</time>
      </trkpt>
      <trkpt lat="48.87362" lon="2.09968">
        <ele>139</ele>
        <time>2018-11-08T13:48:38 01:00</time>
      </trkpt>
      <trkpt lat="48.87372" lon="2.09968">
        <ele>141</ele>
        <time>2018-11-08T13:48:47 01:00</time>
      </trkpt>
      <trkpt lat="48.87381" lon="2.09965">
        <ele>142</ele>
        <time>2018-11-08T13:48:56 01:00</time>
      </trkpt>
      <trkpt lat="48.8739" lon="2.0996">
        <ele>140</ele>
        <time>2018-11-08T13:49:07 01:00</time>
      </trkpt>
      <trkpt lat="48.87398" lon="2.09953">
        <ele>138</ele>
        <time>2018-11-08T13:49:18 01:00</time>
      </trkpt>
      <trkpt lat="48.87407" lon="2.09946">
        <ele>137</ele>
        <time>2018-11-08T13:49:28 01:00</time>
      </trkpt>
      <trkpt lat="48.87415" lon="2.09939">
        <ele>138</ele>
        <time>2018-11-08T13:49:36 01:00</time>
      </trkpt>
      <trkpt lat="48.87425" lon="2.09936">
        <ele>137</ele>
        <time>2018-11-08T13:49:46 01:00</time>
      </trkpt>
      <trkpt lat="48.87434" lon="2.09937">
        <ele>136</ele>
        <time>2018-11-08T13:49:57 01:00</time>
      </trkpt>
      <trkpt lat="48.87443" lon="2.09934">
        <ele>136</ele>
        <time>2018-11-08T13:50:04 01:00</time>
      </trkpt>
      <trkpt lat="48.87453" lon="2.09938">
        <ele>134</ele>
        <time>2018-11-08T13:50:16 01:00</time>
      </trkpt>
      <trkpt lat="48.87462" lon="2.09936">
        <ele>134</ele>
        <time>2018-11-08T13:50:24 01:00</time>
      </trkpt>
      <trkpt lat="48.8747" lon="2.09932">
        <ele>133</ele>
        <time>2018-11-08T13:50:34 01:00</time>
      </trkpt>
      <trkpt lat="48.87478" lon="2.09923">
        <ele>135</ele>
        <time>2018-11-08T13:50:46 01:00</time>
      </trkpt>
      <trkpt lat="48.87486" lon="2.09915">
        <ele>134</ele>
        <time>2018-11-08T13:50:55 01:00</time>
      </trkpt>
      <trkpt lat="48.87492" lon="2.09905">
        <ele>132</ele>
        <time>2018-11-08T13:51:04 01:00</time>
      </trkpt>
      <trkpt lat="48.87499" lon="2.09894">
        <ele>133</ele>
        <time>2018-11-08T13:51:14 01:00</time>
      </trkpt>
      <trkpt lat="48.87506" lon="2.09884">
        <ele>133</ele>
        <time>2018-11-08T13:51:23 01:00</time>
      </trkpt>
      <trkpt lat="48.87512" lon="2.09872">
        <ele>132</ele>
        <time>2018-11-08T13:51:33 01:00</time>
      </trkpt>
      <trkpt lat="48.87517" lon="2.0986">
        <ele>131</ele>
        <time>2018-11-08T13:51:42 01:00</time>
      </trkpt>
      <trkpt lat="48.87523" lon="2.0985">
        <ele>131</ele>
        <time>2018-11-08T13:51:52 01:00</time>
      </trkpt>
      <trkpt lat="48.87531" lon="2.09842">
        <ele>132</ele>
        <time>2018-11-08T13:52:05 01:00</time>
      </trkpt>
      <trkpt lat="48.8754" lon="2.09834">
        <ele>130</ele>
        <time>2018-11-08T13:52:14 01:00</time>
      </trkpt>
      <trkpt lat="48.87549" lon="2.09836">
        <ele>129</ele>
        <time>2018-11-08T13:52:34 01:00</time>
      </trkpt>
      <trkpt lat="48.87551" lon="2.09823">
        <ele>132</ele>
        <time>2018-11-08T13:53:00 01:00</time>
      </trkpt>
      <trkpt lat="48.87555" lon="2.0981">
        <ele>134</ele>
        <time>2018-11-08T13:53:14 01:00</time>
      </trkpt>
      <trkpt lat="48.87562" lon="2.098">
        <ele>136</ele>
        <time>2018-11-08T13:53:23 01:00</time>
      </trkpt>
      <trkpt lat="48.8757" lon="2.09792">
        <ele>135</ele>
        <time>2018-11-08T13:53:30 01:00</time>
      </trkpt>
      <trkpt lat="48.87572" lon="2.09778">
        <ele>135</ele>
        <time>2018-11-08T13:53:39 01:00</time>
      </trkpt>
      <trkpt lat="48.87569" lon="2.09764">
        <ele>137</ele>
        <time>2018-11-08T13:53:50 01:00</time>
      </trkpt>
      <trkpt lat="48.87565" lon="2.09751">
        <ele>138</ele>
        <time>2018-11-08T13:54:01 01:00</time>
      </trkpt>
      <trkpt lat="48.87569" lon="2.09738">
        <ele>139</ele>
        <time>2018-11-08T13:54:13 01:00</time>
      </trkpt>
      <trkpt lat="48.87574" lon="2.09727">
        <ele>138</ele>
        <time>2018-11-08T13:54:23 01:00</time>
      </trkpt>
      <trkpt lat="48.8758" lon="2.09714">
        <ele>137</ele>
        <time>2018-11-08T13:54:33 01:00</time>
      </trkpt>
      <trkpt lat="48.87585" lon="2.09703">
        <ele>138</ele>
        <time>2018-11-08T13:54:43 01:00</time>
      </trkpt>
      <trkpt lat="48.87589" lon="2.0969">
        <ele>139</ele>
        <time>2018-11-08T13:54:54 01:00</time>
      </trkpt>
      <trkpt lat="48.8759" lon="2.09676">
        <ele>140</ele>
        <time>2018-11-08T13:55:06 01:00</time>
      </trkpt>
      <trkpt lat="48.8758" lon="2.09674">
        <ele>142</ele>
        <time>2018-11-08T13:55:23 01:00</time>
      </trkpt>
      <trkpt lat="48.87589" lon="2.09675">
        <ele>142</ele>
        <time>2018-11-08T13:58:25 01:00</time>
      </trkpt>
      <trkpt lat="48.8758" lon="2.09669">
        <ele>142</ele>
        <time>2018-11-08T13:59:17 01:00</time>
      </trkpt>
      <trkpt lat="48.87643" lon="2.09579">
        <ele>117</ele>
        <time>2018-11-08T14:04:55 01:00</time>
      </trkpt>
      <trkpt lat="48.87633" lon="2.09576">
        <ele>137</ele>
        <time>2018-11-08T14:04:58 01:00</time>
      </trkpt>
      <trkpt lat="48.87623" lon="2.09577">
        <ele>146</ele>
        <time>2018-11-08T14:04:59 01:00</time>
      </trkpt>
      <trkpt lat="48.87619" lon="2.09565">
        <ele>148</ele>
        <time>2018-11-08T14:05:30 01:00</time>
      </trkpt>
      <trkpt lat="48.87626" lon="2.09554">
        <ele>143</ele>
        <time>2018-11-08T14:05:41 01:00</time>
      </trkpt>
      <trkpt lat="48.87635" lon="2.0955">
        <ele>142</ele>
        <time>2018-11-08T14:05:49 01:00</time>
      </trkpt>
      <trkpt lat="48.87644" lon="2.09545">
        <ele>140</ele>
        <time>2018-11-08T14:06:04 01:00</time>
      </trkpt>
      <trkpt lat="48.87652" lon="2.09534">
        <ele>139</ele>
        <time>2018-11-08T14:06:13 01:00</time>
      </trkpt>
      <trkpt lat="48.87659" lon="2.09525">
        <ele>139</ele>
        <time>2018-11-08T14:06:23 01:00</time>
      </trkpt>
      <trkpt lat="48.87668" lon="2.09516">
        <ele>143</ele>
        <time>2018-11-08T14:06:30 01:00</time>
      </trkpt>
      <trkpt lat="48.87678" lon="2.09511">
        <ele>144</ele>
        <time>2018-11-08T14:06:37 01:00</time>
      </trkpt>
      <trkpt lat="48.87685" lon="2.09503">
        <ele>143</ele>
        <time>2018-11-08T14:06:47 01:00</time>
      </trkpt>
      <trkpt lat="48.87684" lon="2.09488">
        <ele>140</ele>
        <time>2018-11-08T14:07:02 01:00</time>
      </trkpt>
      <trkpt lat="48.87691" lon="2.09477">
        <ele>145</ele>
        <time>2018-11-08T14:07:12 01:00</time>
      </trkpt>
      <trkpt lat="48.87697" lon="2.09466">
        <ele>145</ele>
        <time>2018-11-08T14:07:21 01:00</time>
      </trkpt>
      <trkpt lat="48.87704" lon="2.09457">
        <ele>146</ele>
        <time>2018-11-08T14:07:30 01:00</time>
      </trkpt>
      <trkpt lat="48.87703" lon="2.09444">
        <ele>144</ele>
        <time>2018-11-08T14:07:43 01:00</time>
      </trkpt>
      <trkpt lat="48.87698" lon="2.09432">
        <ele>143</ele>
        <time>2018-11-08T14:07:51 01:00</time>
      </trkpt>
      <trkpt lat="48.87689" lon="2.09424">
        <ele>140</ele>
        <time>2018-11-08T14:08:00 01:00</time>
      </trkpt>
      <trkpt lat="48.87682" lon="2.09414">
        <ele>141</ele>
        <time>2018-11-08T14:08:10 01:00</time>
      </trkpt>
      <trkpt lat="48.87676" lon="2.09403">
        <ele>143</ele>
        <time>2018-11-08T14:08:20 01:00</time>
      </trkpt>
      <trkpt lat="48.87669" lon="2.09392">
        <ele>149</ele>
        <time>2018-11-08T14:08:29 01:00</time>
      </trkpt>
      <trkpt lat="48.87664" lon="2.09379">
        <ele>151</ele>
        <time>2018-11-08T14:08:36 01:00</time>
      </trkpt>
      <trkpt lat="48.87659" lon="2.09368">
        <ele>153</ele>
        <time>2018-11-08T14:08:43 01:00</time>
      </trkpt>
      <trkpt lat="48.87654" lon="2.09354">
        <ele>154</ele>
        <time>2018-11-08T14:08:50 01:00</time>
      </trkpt>
      <trkpt lat="48.8765" lon="2.09341">
        <ele>154</ele>
        <time>2018-11-08T14:08:56 01:00</time>
      </trkpt>
      <trkpt lat="48.87648" lon="2.09327">
        <ele>151</ele>
        <time>2018-11-08T14:09:02 01:00</time>
      </trkpt>
      <trkpt lat="48.87652" lon="2.09314">
        <ele>148</ele>
        <time>2018-11-08T14:09:16 01:00</time>
      </trkpt>
      <trkpt lat="48.87654" lon="2.093">
        <ele>146</ele>
        <time>2018-11-08T14:09:26 01:00</time>
      </trkpt>
      <trkpt lat="48.87653" lon="2.09286">
        <ele>141</ele>
        <time>2018-11-08T14:09:35 01:00</time>
      </trkpt>
      <trkpt lat="48.87649" lon="2.09273">
        <ele>136</ele>
        <time>2018-11-08T14:09:48 01:00</time>
      </trkpt>
      <trkpt lat="48.87647" lon="2.09259">
        <ele>137</ele>
        <time>2018-11-08T14:10:01 01:00</time>
      </trkpt>
      <trkpt lat="48.87647" lon="2.09245">
        <ele>143</ele>
        <time>2018-11-08T14:10:14 01:00</time>
      </trkpt>
      <trkpt lat="48.87646" lon="2.0923">
        <ele>143</ele>
        <time>2018-11-08T14:10:24 01:00</time>
      </trkpt>
      <trkpt lat="48.87645" lon="2.09214">
        <ele>144</ele>
        <time>2018-11-08T14:10:28 01:00</time>
      </trkpt>
      <trkpt lat="48.87647" lon="2.092">
        <ele>142</ele>
        <time>2018-11-08T14:10:38 01:00</time>
      </trkpt>
      <trkpt lat="48.87649" lon="2.09185">
        <ele>144</ele>
        <time>2018-11-08T14:10:51 01:00</time>
      </trkpt>
      <trkpt lat="48.87651" lon="2.09172">
        <ele>144</ele>
        <time>2018-11-08T14:11:01 01:00</time>
      </trkpt>
      <trkpt lat="48.87653" lon="2.09156">
        <ele>145</ele>
        <time>2018-11-08T14:11:09 01:00</time>
      </trkpt>
      <trkpt lat="48.87655" lon="2.0914">
        <ele>141</ele>
        <time>2018-11-08T14:11:15 01:00</time>
      </trkpt>
      <trkpt lat="48.87656" lon="2.09126">
        <ele>145</ele>
        <time>2018-11-08T14:11:26 01:00</time>
      </trkpt>
      <trkpt lat="48.87657" lon="2.09111">
        <ele>143</ele>
        <time>2018-11-08T14:11:34 01:00</time>
      </trkpt>
      <trkpt lat="48.87658" lon="2.09097">
        <ele>145</ele>
        <time>2018-11-08T14:11:40 01:00</time>
      </trkpt>
      <trkpt lat="48.87659" lon="2.09083">
        <ele>145</ele>
        <time>2018-11-08T14:11:46 01:00</time>
      </trkpt>
      <trkpt lat="48.87658" lon="2.09069">
        <ele>139</ele>
        <time>2018-11-08T14:11:54 01:00</time>
      </trkpt>
      <trkpt lat="48.87656" lon="2.09055">
        <ele>146</ele>
        <time>2018-11-08T14:12:07 01:00</time>
      </trkpt>
      <trkpt lat="48.87656" lon="2.0904">
        <ele>147</ele>
        <time>2018-11-08T14:12:17 01:00</time>
      </trkpt>
      <trkpt lat="48.87656" lon="2.09026">
        <ele>145</ele>
        <time>2018-11-08T14:12:25 01:00</time>
      </trkpt>
      <trkpt lat="48.87651" lon="2.09014">
        <ele>148</ele>
        <time>2018-11-08T14:12:33 01:00</time>
      </trkpt>
      <trkpt lat="48.87644" lon="2.09004">
        <ele>147</ele>
        <time>2018-11-08T14:12:41 01:00</time>
      </trkpt>
      <trkpt lat="48.87636" lon="2.08994">
        <ele>149</ele>
        <time>2018-11-08T14:12:49 01:00</time>
      </trkpt>
      <trkpt lat="48.87629" lon="2.08984">
        <ele>150</ele>
        <time>2018-11-08T14:12:57 01:00</time>
      </trkpt>
      <trkpt lat="48.87623" lon="2.08972">
        <ele>152</ele>
        <time>2018-11-08T14:13:06 01:00</time>
      </trkpt>
      <trkpt lat="48.87614" lon="2.08967">
        <ele>148</ele>
        <time>2018-11-08T14:13:17 01:00</time>
      </trkpt>
      <trkpt lat="48.87605" lon="2.0896">
        <ele>149</ele>
        <time>2018-11-08T14:14:10 01:00</time>
      </trkpt>
      <trkpt lat="48.87598" lon="2.08952">
        <ele>149</ele>
        <time>2018-11-08T14:14:19 01:00</time>
      </trkpt>
      <trkpt lat="48.87593" lon="2.0894">
        <ele>149</ele>
        <time>2018-11-08T14:14:29 01:00</time>
      </trkpt>
      <trkpt lat="48.87586" lon="2.08929">
        <ele>146</ele>
        <time>2018-11-08T14:14:40 01:00</time>
      </trkpt>
      <trkpt lat="48.87581" lon="2.08918">
        <ele>148</ele>
        <time>2018-11-08T14:14:48 01:00</time>
      </trkpt>
      <trkpt lat="48.87575" lon="2.08906">
        <ele>149</ele>
        <time>2018-11-08T14:14:56 01:00</time>
      </trkpt>
      <trkpt lat="48.87568" lon="2.08896">
        <ele>147</ele>
        <time>2018-11-08T14:15:05 01:00</time>
      </trkpt>
      <trkpt lat="48.87561" lon="2.08886">
        <ele>149</ele>
        <time>2018-11-08T14:15:14 01:00</time>
      </trkpt>
      <trkpt lat="48.87554" lon="2.08876">
        <ele>148</ele>
        <time>2018-11-08T14:15:23 01:00</time>
      </trkpt>
      <trkpt lat="48.87547" lon="2.08866">
        <ele>149</ele>
        <time>2018-11-08T14:15:33 01:00</time>
      </trkpt>
      <trkpt lat="48.8754" lon="2.08856">
        <ele>147</ele>
        <time>2018-11-08T14:15:42 01:00</time>
      </trkpt>
      <trkpt lat="48.87532" lon="2.08849">
        <ele>145</ele>
        <time>2018-11-08T14:15:51 01:00</time>
      </trkpt>
      <trkpt lat="48.87524" lon="2.08858">
        <ele>143</ele>
        <time>2018-11-08T14:15:58 01:00</time>
      </trkpt>
      <trkpt lat="48.87517" lon="2.08867">
        <ele>143</ele>
        <time>2018-11-08T14:16:05 01:00</time>
      </trkpt>
      <trkpt lat="48.87507" lon="2.08873">
        <ele>145</ele>
        <time>2018-11-08T14:16:15 01:00</time>
      </trkpt>
      <trkpt lat="48.875" lon="2.08881">
        <ele>142</ele>
        <time>2018-11-08T14:17:07 01:00</time>
      </trkpt>
      <trkpt lat="48.87491" lon="2.08886">
        <ele>143</ele>
        <time>2018-11-08T14:17:17 01:00</time>
      </trkpt>
      <trkpt lat="48.87482" lon="2.08891">
        <ele>143</ele>
        <time>2018-11-08T14:17:26 01:00</time>
      </trkpt>
      <trkpt lat="48.87474" lon="2.08895">
        <ele>141</ele>
        <time>2018-11-08T14:17:37 01:00</time>
      </trkpt>
      <trkpt lat="48.87467" lon="2.08904">
        <ele>139</ele>
        <time>2018-11-08T14:17:46 01:00</time>
      </trkpt>
      <trkpt lat="48.87459" lon="2.08913">
        <ele>141</ele>
        <time>2018-11-08T14:17:55 01:00</time>
      </trkpt>
      <trkpt lat="48.87452" lon="2.08922">
        <ele>141</ele>
        <time>2018-11-08T14:18:04 01:00</time>
      </trkpt>
      <trkpt lat="48.87444" lon="2.08931">
        <ele>143</ele>
        <time>2018-11-08T14:18:14 01:00</time>
      </trkpt>
      <trkpt lat="48.87436" lon="2.08941">
        <ele>146</ele>
        <time>2018-11-08T14:18:31 01:00</time>
      </trkpt>
      <trkpt lat="48.8743" lon="2.08953">
        <ele>146</ele>
        <time>2018-11-08T14:18:41 01:00</time>
      </trkpt>
      <trkpt lat="48.87428" lon="2.08967">
        <ele>142</ele>
        <time>2018-11-08T14:19:00 01:00</time>
      </trkpt>
      <trkpt lat="48.87421" lon="2.08975">
        <ele>140</ele>
        <time>2018-11-08T14:19:09 01:00</time>
      </trkpt>
      <trkpt lat="48.87415" lon="2.08986">
        <ele>139</ele>
        <time>2018-11-08T14:19:19 01:00</time>
      </trkpt>
      <trkpt lat="48.87407" lon="2.08996">
        <ele>143</ele>
        <time>2018-11-08T14:19:27 01:00</time>
      </trkpt>
      <trkpt lat="48.87401" lon="2.09007">
        <ele>147</ele>
        <time>2018-11-08T14:19:34 01:00</time>
      </trkpt>
      <trkpt lat="48.87393" lon="2.09016">
        <ele>149</ele>
        <time>2018-11-08T14:19:42 01:00</time>
      </trkpt>
      <trkpt lat="48.87389" lon="2.09029">
        <ele>151</ele>
        <time>2018-11-08T14:20:09 01:00</time>
      </trkpt>
      <trkpt lat="48.87384" lon="2.09043">
        <ele>146</ele>
        <time>2018-11-08T14:20:19 01:00</time>
      </trkpt>
      <trkpt lat="48.87379" lon="2.09055">
        <ele>147</ele>
        <time>2018-11-08T14:20:27 01:00</time>
      </trkpt>
      <trkpt lat="48.87374" lon="2.09066">
        <ele>145</ele>
        <time>2018-11-08T14:20:35 01:00</time>
      </trkpt>
      <trkpt lat="48.8737" lon="2.09079">
        <ele>146</ele>
        <time>2018-11-08T14:20:43 01:00</time>
      </trkpt>
      <trkpt lat="48.87364" lon="2.0909">
        <ele>145</ele>
        <time>2018-11-08T14:20:52 01:00</time>
      </trkpt>
      <trkpt lat="48.87359" lon="2.09103">
        <ele>143</ele>
        <time>2018-11-08T14:21:00 01:00</time>
      </trkpt>
      <trkpt lat="48.87355" lon="2.09115">
        <ele>143</ele>
        <time>2018-11-08T14:21:13 01:00</time>
      </trkpt>
      <trkpt lat="48.8735" lon="2.09127">
        <ele>144</ele>
        <time>2018-11-08T14:21:23 01:00</time>
      </trkpt>
      <trkpt lat="48.87344" lon="2.09139">
        <ele>145</ele>
        <time>2018-11-08T14:21:35 01:00</time>
      </trkpt>
      <trkpt lat="48.87338" lon="2.09151">
        <ele>144</ele>
        <time>2018-11-08T14:21:45 01:00</time>
      </trkpt>
      <trkpt lat="48.87332" lon="2.09162">
        <ele>147</ele>
        <time>2018-11-08T14:21:54 01:00</time>
      </trkpt>
      <trkpt lat="48.87325" lon="2.09172">
        <ele>149</ele>
        <time>2018-11-08T14:22:03 01:00</time>
      </trkpt>
      <trkpt lat="48.87321" lon="2.09185">
        <ele>148</ele>
        <time>2018-11-08T14:22:12 01:00</time>
      </trkpt>
      <trkpt lat="48.87317" lon="2.09198">
        <ele>145</ele>
        <time>2018-11-08T14:22:22 01:00</time>
      </trkpt>
      <trkpt lat="48.87311" lon="2.0921">
        <ele>145</ele>
        <time>2018-11-08T14:22:33 01:00</time>
      </trkpt>
      <trkpt lat="48.87308" lon="2.09224">
        <ele>149</ele>
        <time>2018-11-08T14:22:43 01:00</time>
      </trkpt>
      <trkpt lat="48.87306" lon="2.09238">
        <ele>149</ele>
        <time>2018-11-08T14:22:51 01:00</time>
      </trkpt>
      <trkpt lat="48.873" lon="2.0925">
        <ele>151</ele>
        <time>2018-11-08T14:22:59 01:00</time>
      </trkpt>
      <trkpt lat="48.87293" lon="2.09258">
        <ele>152</ele>
        <time>2018-11-08T14:23:12 01:00</time>
      </trkpt>
      <trkpt lat="48.87284" lon="2.0926">
        <ele>151</ele>
        <time>2018-11-08T14:23:25 01:00</time>
      </trkpt>
      <trkpt lat="48.87276" lon="2.09254">
        <ele>152</ele>
        <time>2018-11-08T14:23:40 01:00</time>
      </trkpt>
      <trkpt lat="48.87268" lon="2.09246">
        <ele>152</ele>
        <time>2018-11-08T14:23:51 01:00</time>
      </trkpt>
      <trkpt lat="48.8726" lon="2.09239">
        <ele>152</ele>
        <time>2018-11-08T14:24:02 01:00</time>
      </trkpt>
      <trkpt lat="48.87252" lon="2.0923">
        <ele>150</ele>
        <time>2018-11-08T14:24:11 01:00</time>
      </trkpt>
      <trkpt lat="48.87243" lon="2.09225">
        <ele>150</ele>
        <time>2018-11-08T14:24:21 01:00</time>
      </trkpt>
      <trkpt lat="48.87235" lon="2.09216">
        <ele>150</ele>
        <time>2018-11-08T14:24:31 01:00</time>
      </trkpt>
      <trkpt lat="48.87226" lon="2.09209">
        <ele>150</ele>
        <time>2018-11-08T14:24:40 01:00</time>
      </trkpt>
      <trkpt lat="48.87218" lon="2.09212">
        <ele>149</ele>
        <time>2018-11-08T14:24:48 01:00</time>
      </trkpt>
      <trkpt lat="48.87214" lon="2.09225">
        <ele>147</ele>
        <time>2018-11-08T14:25:00 01:00</time>
      </trkpt>
      <trkpt lat="48.87211" lon="2.09239">
        <ele>147</ele>
        <time>2018-11-08T14:25:12 01:00</time>
      </trkpt>
      <trkpt lat="48.87211" lon="2.09253">
        <ele>147</ele>
        <time>2018-11-08T14:25:21 01:00</time>
      </trkpt>
      <trkpt lat="48.8721" lon="2.09266">
        <ele>143</ele>
        <time>2018-11-08T14:25:30 01:00</time>
      </trkpt>
      <trkpt lat="48.87208" lon="2.09281">
        <ele>144</ele>
        <time>2018-11-08T14:25:40 01:00</time>
      </trkpt>
      <trkpt lat="48.87206" lon="2.09295">
        <ele>145</ele>
        <time>2018-11-08T14:25:49 01:00</time>
      </trkpt>
      <trkpt lat="48.87205" lon="2.09309">
        <ele>142</ele>
        <time>2018-11-08T14:25:59 01:00</time>
      </trkpt>
      <trkpt lat="48.87204" lon="2.09323">
        <ele>142</ele>
        <time>2018-11-08T14:26:09 01:00</time>
      </trkpt>
      <trkpt lat="48.87202" lon="2.09337">
        <ele>136</ele>
        <time>2018-11-08T14:26:18 01:00</time>
      </trkpt>
      <trkpt lat="48.872" lon="2.09351">
        <ele>138</ele>
        <time>2018-11-08T14:26:29 01:00</time>
      </trkpt>
      <trkpt lat="48.87202" lon="2.09364">
        <ele>141</ele>
        <time>2018-11-08T14:26:43 01:00</time>
      </trkpt>
      <trkpt lat="48.87197" lon="2.09379">
        <ele>146</ele>
        <time>2018-11-08T14:26:58 01:00</time>
      </trkpt>
      <trkpt lat="48.87191" lon="2.0939">
        <ele>147</ele>
        <time>2018-11-08T14:27:06 01:00</time>
      </trkpt>
      <trkpt lat="48.87189" lon="2.09404">
        <ele>147</ele>
        <time>2018-11-08T14:27:14 01:00</time>
      </trkpt>
      <trkpt lat="48.87188" lon="2.09419">
        <ele>148</ele>
        <time>2018-11-08T14:27:24 01:00</time>
      </trkpt>
      <trkpt lat="48.87183" lon="2.09432">
        <ele>148</ele>
        <time>2018-11-08T14:27:33 01:00</time>
      </trkpt>
      <trkpt lat="48.87181" lon="2.09446">
        <ele>142</ele>
        <time>2018-11-08T14:27:45 01:00</time>
      </trkpt>
      <trkpt lat="48.87172" lon="2.09448">
        <ele>144</ele>
        <time>2018-11-08T14:27:53 01:00</time>
      </trkpt>
      <trkpt lat="48.87162" lon="2.0945">
        <ele>147</ele>
        <time>2018-11-08T14:28:06 01:00</time>
      </trkpt>
      <trkpt lat="48.87158" lon="2.09463">
        <ele>147</ele>
        <time>2018-11-08T14:28:17 01:00</time>
      </trkpt>
      <trkpt lat="48.87156" lon="2.09477">
        <ele>148</ele>
        <time>2018-11-08T14:28:26 01:00</time>
      </trkpt>
      <trkpt lat="48.87152" lon="2.0949">
        <ele>151</ele>
        <time>2018-11-08T14:28:33 01:00</time>
      </trkpt>
      <trkpt lat="48.87149" lon="2.09502">
        <ele>152</ele>
        <time>2018-11-08T14:28:42 01:00</time>
      </trkpt>
      <trkpt lat="48.87146" lon="2.09516">
        <ele>151</ele>
        <time>2018-11-08T14:28:51 01:00</time>
      </trkpt>
      <trkpt lat="48.87143" lon="2.0953">
        <ele>153</ele>
        <time>2018-11-08T14:29:01 01:00</time>
      </trkpt>
      <trkpt lat="48.8714" lon="2.09543">
        <ele>152</ele>
        <time>2018-11-08T14:29:11 01:00</time>
      </trkpt>
      <trkpt lat="48.87138" lon="2.09557">
        <ele>153</ele>
        <time>2018-11-08T14:29:22 01:00</time>
      </trkpt>
      <trkpt lat="48.87134" lon="2.0957">
        <ele>152</ele>
        <time>2018-11-08T14:29:31 01:00</time>
      </trkpt>
      <trkpt lat="48.87132" lon="2.09584">
        <ele>154</ele>
        <time>2018-11-08T14:29:41 01:00</time>
      </trkpt>
      <trkpt lat="48.8713" lon="2.09597">
        <ele>155</ele>
        <time>2018-11-08T14:29:50 01:00</time>
      </trkpt>
      <trkpt lat="48.87127" lon="2.09611">
        <ele>156</ele>
        <time>2018-11-08T14:29:59 01:00</time>
      </trkpt>
    </trkseg>
  </trk>
</gpx>